PWSweather.com
Personal Weather Stations
Station Observations
KNJEWING3
Ewing, NJ 08638

Ewing, NJ 08638

Lat: 40.25193, Lon: -74.77511

Elevation: 106

Station Type: Oregon Scientific WMR968 / SRS100 Solar Radiation Shield. Rain Data At www.cocorahs.org (NJ-MC-11)

Latest ConditionsUpdated 2:12:56 PM EDT Monday, Sep 22, 2014
Currently Today's Max Today's Min Today's Average
Temperature 69.3°F20.7°C 70.2°F21.2°C 60.6°F15.9°C 66.2°F19.0°C
Dew Point 41.2°F5.1°C 55.8°F13.2°C 38.9°F3.8°C 44.2°F6.8°C
Winds 7.5 mph NNW12.1 kmh NNW 15.8 mph N25.4 kmh N - 4.1 mph 6.6 kmh
Wind Gusts 9.9 mph15.9 kmh 15.8 mph25.4 kmh - -
Humidity 36% 70% 36% 46%
Pressure 30.03 in1016.9 mb 30.03 in1016.9 mb 29.73 in1006.8 mb -
Hour Temp Dew Point Humidity Winds Wind Gusts Pressure Precip Precip Rate Daily Precip Total
02:12 PM 69.3°F20.7°C 41.2°F5.1°C 36% 7.5 mph NNW12.1 kmh NNW 9.9 mph15.9 kmh 30.03 in1016.9 mb 0.00 in0.0 mm 0.00 in/hr0.0 mm/hr 0.00 in0.0 mm
02:11 PM 69.4°F20.8°C 41.4°F5.2°C 36% 7.0 mph NNW11.3 kmh NNW 9.9 mph15.9 kmh 30.03 in1016.9 mb 0.00 in0.0 mm 0.00 in/hr0.0 mm/hr 0.00 in0.0 mm
02:09 PM 69.4°F20.8°C 41.4°F5.2°C 36% 6.4 mph NW10.3 kmh NW 9.9 mph15.9 kmh 30.03 in1016.9 mb 0.00 in0.0 mm 0.00 in/hr0.0 mm/hr 0.00 in0.0 mm
02:08 PM 69.6°F20.9°C 41.5°F5.3°C 36% 7.5 mph NNW12.1 kmh NNW 9.9 mph15.9 kmh 30.03 in1016.9 mb 0.00 in0.0 mm 0.00 in/hr0.0 mm/hr 0.00 in0.0 mm
02:06 PM 69.8°F21.0°C 41.7°F5.4°C 36% 7.0 mph NW11.3 kmh NW 9.9 mph15.9 kmh 30.03 in1016.9 mb 0.00 in0.0 mm 0.00 in/hr0.0 mm/hr 0.00 in0.0 mm
02:05 PM 69.8°F21.0°C 41.7°F5.4°C 36% 7.0 mph W11.3 kmh W 11.5 mph18.5 kmh 30.03 in1016.9 mb 0.00 in0.0 mm 0.00 in/hr0.0 mm/hr 0.00 in0.0 mm
02:04 PM 69.8°F21.0°C 41.7°F5.4°C 36% 5.9 mph NW9.5 kmh NW 11.5 mph18.5 kmh 30.03 in1016.9 mb 0.00 in0.0 mm 0.00 in/hr0.0 mm/hr 0.00 in0.0 mm
02:02 PM 69.8°F21.0°C 41.7°F5.4°C 36% 3.8 mph W6.1 kmh W 11.5 mph18.5 kmh 30.03 in1016.9 mb 0.00 in0.0 mm 0.00 in/hr0.0 mm/hr 0.00 in0.0 mm
02:01 PM 69.6°F20.9°C 41.5°F5.3°C 36% 8.6 mph WNW13.8 kmh WNW 11.5 mph18.5 kmh 30.03 in1016.9 mb 0.00 in0.0 mm 0.00 in/hr0.0 mm/hr 0.00 in0.0 mm
02:00 PM 69.6°F20.9°C 41.5°F5.3°C 36% 6.4 mph NW10.3 kmh NW 11.5 mph18.5 kmh 30.03 in1016.9 mb 0.00 in0.0 mm 0.00 in/hr0.0 mm/hr 0.00 in0.0 mm
01:59 PM 69.3°F20.7°C 41.2°F5.1°C 36% 11.5 mph WSW18.5 kmh WSW 11.5 mph18.5 kmh 30.03 in1016.9 mb 0.00 in0.0 mm 0.00 in/hr0.0 mm/hr 0.00 in0.0 mm
01:58 PM 69.3°F20.7°C 41.2°F5.1°C 36% 4.3 mph WNW6.9 kmh WNW 9.1 mph14.6 kmh 30.03 in1016.9 mb 0.00 in0.0 mm 0.00 in/hr0.0 mm/hr 0.00 in0.0 mm
01:57 PM 68.9°F20.5°C 40.9°F4.9°C 36% Calm Calm 9.1 mph14.6 kmh 30.03 in1016.9 mb 0.00 in0.0 mm 0.00 in/hr0.0 mm/hr 0.00 in0.0 mm
01:55 PM 68.9°F20.5°C 40.9°F4.9°C 36% 3.2 mph SSW5.1 kmh SSW 9.1 mph14.6 kmh 30.03 in1016.9 mb 0.00 in0.0 mm 0.00 in/hr0.0 mm/hr 0.00 in0.0 mm
01:54 PM 68.9°F20.5°C 40.9°F4.9°C 36% 4.8 mph NNW7.7 kmh NNW 9.1 mph14.6 kmh 30.03 in1016.9 mb 0.00 in0.0 mm 0.00 in/hr0.0 mm/hr 0.00 in0.0 mm
01:52 PM 68.9°F20.5°C 40.9°F4.9°C 36% 9.1 mph NNW14.6 kmh NNW 9.9 mph15.9 kmh 30.03 in1016.9 mb 0.00 in0.0 mm 0.00 in/hr0.0 mm/hr 0.00 in0.0 mm
01:50 PM 68.9°F20.5°C 40.9°F4.9°C 36% 3.2 mph NW5.1 kmh NW 10.5 mph16.9 kmh 30.03 in1016.9 mb 0.00 in0.0 mm 0.00 in/hr0.0 mm/hr 0.00 in0.0 mm
01:48 PM 68.9°F20.5°C 40.9°F4.9°C 36% 4.3 mph NW6.9 kmh NW 10.5 mph16.9 kmh 30.03 in1016.9 mb 0.00 in0.0 mm 0.00 in/hr0.0 mm/hr 0.00 in0.0 mm
01:47 PM 68.9°F20.5°C 40.9°F4.9°C 36% 3.2 mph NNW5.1 kmh NNW 10.5 mph16.9 kmh 30.03 in1016.9 mb 0.00 in0.0 mm 0.00 in/hr0.0 mm/hr 0.00 in0.0 mm
01:45 PM 69.1°F20.6°C 41.0°F5.0°C 36% 7.0 mph N11.3 kmh N 10.5 mph16.9 kmh 30.03 in1016.9 mb 0.00 in0.0 mm 0.00 in/hr0.0 mm/hr 0.00 in0.0 mm
01:43 PM 69.1°F20.6°C 41.0°F5.0°C 36% 7.0 mph NNE11.3 kmh NNE 10.5 mph16.9 kmh 30.03 in1016.9 mb 0.00 in0.0 mm 0.00 in/hr0.0 mm/hr 0.00 in0.0 mm
01:42 PM 69.1°F20.6°C 41.0°F5.0°C 36% 4.3 mph NW6.9 kmh NW 10.5 mph16.9 kmh 30.03 in1016.9 mb 0.00 in0.0 mm 0.00 in/hr0.0 mm/hr 0.00 in0.0 mm
01:40 PM 69.1°F20.6°C 41.0°F5.0°C 36% 5.9 mph WNW9.5 kmh WNW 10.5 mph16.9 kmh 30.03 in1016.9 mb 0.00 in0.0 mm 0.00 in/hr0.0 mm/hr 0.00 in0.0 mm
01:38 PM 69.1°F20.6°C 41.0°F5.0°C 36% 2.7 mph N4.3 kmh N 10.5 mph16.9 kmh 30.03 in1016.9 mb 0.00 in0.0 mm 0.00 in/hr0.0 mm/hr 0.00 in0.0 mm
01:37 PM 69.1°F20.6°C 41.0°F5.0°C 36% 7.5 mph NW12.1 kmh NW 10.5 mph16.9 kmh 30.03 in1016.9 mb 0.00 in0.0 mm 0.00 in/hr0.0 mm/hr 0.00 in0.0 mm
01:36 PM 69.1°F20.6°C 41.0°F5.0°C 36% 4.3 mph NW6.9 kmh NW 9.9 mph15.9 kmh 30.03 in1016.9 mb 0.00 in0.0 mm 0.00 in/hr0.0 mm/hr 0.00 in0.0 mm
01:34 PM 69.1°F20.6°C 41.0°F5.0°C 36% 5.9 mph N9.5 kmh N 9.9 mph15.9 kmh 30.03 in1016.9 mb 0.00 in0.0 mm 0.00 in/hr0.0 mm/hr 0.00 in0.0 mm
01:33 PM 68.9°F20.5°C 40.9°F4.9°C 36% 5.9 mph WNW9.5 kmh WNW 9.9 mph15.9 kmh 30.03 in1016.9 mb 0.00 in0.0 mm 0.00 in/hr0.0 mm/hr 0.00 in0.0 mm
01:31 PM 68.7°F20.4°C 40.7°F4.8°C 36% 4.8 mph WSW7.7 kmh WSW 9.9 mph15.9 kmh 30.03 in1016.9 mb 0.00 in0.0 mm 0.00 in/hr0.0 mm/hr 0.00 in0.0 mm
01:30 PM 68.7°F20.4°C 40.7°F4.8°C 36% 3.8 mph NW6.1 kmh NW 9.9 mph15.9 kmh 30.03 in1016.9 mb 0.00 in0.0 mm 0.00 in/hr0.0 mm/hr 0.00 in0.0 mm
01:29 PM 68.5°F20.3°C 40.6°F4.8°C 36% 3.2 mph NW5.1 kmh NW 7.0 mph11.3 kmh 30.03 in1016.9 mb 0.00 in0.0 mm 0.00 in/hr0.0 mm/hr 0.00 in0.0 mm
01:27 PM 68.5°F20.3°C 40.6°F4.8°C 36% 3.8 mph WSW6.1 kmh WSW 9.7 mph15.6 kmh 30.03 in1016.9 mb 0.00 in0.0 mm 0.00 in/hr0.0 mm/hr 0.00 in0.0 mm
01:26 PM 68.4°F20.2°C 40.4°F4.7°C 36% 3.2 mph NNW5.1 kmh NNW 9.7 mph15.6 kmh 30.03 in1016.9 mb 0.00 in0.0 mm 0.00 in/hr0.0 mm/hr 0.00 in0.0 mm
01:24 PM 68.4°F20.2°C 40.4°F4.7°C 36% 4.3 mph NE6.9 kmh NE 9.7 mph15.6 kmh 30.03 in1016.9 mb 0.00 in0.0 mm 0.00 in/hr0.0 mm/hr 0.00 in0.0 mm
01:23 PM 68.4°F20.2°C 40.4°F4.7°C 36% 5.4 mph NNW8.7 kmh NNW 9.7 mph15.6 kmh 30.03 in1016.9 mb 0.00 in0.0 mm 0.00 in/hr0.0 mm/hr 0.00 in0.0 mm
01:22 PM 68.2°F20.1°C 40.2°F4.6°C 36% 4.8 mph WSW7.7 kmh WSW 9.7 mph15.6 kmh 30.03 in1016.9 mb 0.00 in0.0 mm 0.00 in/hr0.0 mm/hr 0.00 in0.0 mm
01:21 PM 68.4°F20.2°C 40.4°F4.7°C 36% 4.3 mph NW6.9 kmh NW 9.7 mph15.6 kmh 30.03 in1016.9 mb 0.00 in0.0 mm 0.00 in/hr0.0 mm/hr 0.00 in0.0 mm
01:19 PM 68.2°F20.1°C 40.2°F4.6°C 36% 6.4 mph NE10.3 kmh NE 6.4 mph10.3 kmh 30.03 in1016.9 mb 0.00 in0.0 mm 0.00 in/hr0.0 mm/hr 0.00 in0.0 mm
01:18 PM 68.2°F20.1°C 40.2°F4.6°C 36% 6.4 mph W10.3 kmh W 9.7 mph15.6 kmh 30.03 in1016.9 mb 0.00 in0.0 mm 0.00 in/hr0.0 mm/hr 0.00 in0.0 mm
01:16 PM 68.2°F20.1°C 40.2°F4.6°C 36% 4.3 mph WNW6.9 kmh WNW 9.7 mph15.6 kmh 30.03 in1016.9 mb 0.00 in0.0 mm 0.00 in/hr0.0 mm/hr 0.00 in0.0 mm
01:15 PM 68.4°F20.2°C 40.4°F4.7°C 36% 4.8 mph SW7.7 kmh SW 9.7 mph15.6 kmh 30.03 in1016.9 mb 0.00 in0.0 mm 0.00 in/hr0.0 mm/hr 0.00 in0.0 mm
01:14 PM 68.5°F20.3°C 40.6°F4.8°C 36% 3.2 mph W5.1 kmh W 9.7 mph15.6 kmh 30.03 in1016.9 mb 0.00 in0.0 mm 0.00 in/hr0.0 mm/hr 0.00 in0.0 mm
01:13 PM 68.5°F20.3°C 40.6°F4.8°C 36% 5.9 mph NW9.5 kmh NW 9.7 mph15.6 kmh 30.03 in1016.9 mb 0.00 in0.0 mm 0.00 in/hr0.0 mm/hr 0.00 in0.0 mm
01:12 PM 68.7°F20.4°C 40.7°F4.8°C 36% 3.8 mph NE6.1 kmh NE 9.7 mph15.6 kmh 30.03 in1016.9 mb 0.00 in0.0 mm 0.00 in/hr0.0 mm/hr 0.00 in0.0 mm
01:10 PM 68.7°F20.4°C 40.7°F4.8°C 36% 3.8 mph WNW6.1 kmh WNW 9.7 mph15.6 kmh 30.03 in1016.9 mb 0.00 in0.0 mm 0.00 in/hr0.0 mm/hr 0.00 in0.0 mm
01:09 PM 68.7°F20.4°C 40.7°F4.8°C 36% 6.4 mph SW10.3 kmh SW 9.7 mph15.6 kmh 30.03 in1016.9 mb 0.00 in0.0 mm 0.00 in/hr0.0 mm/hr 0.00 in0.0 mm
01:08 PM 68.9°F20.5°C 40.9°F4.9°C 36% 4.3 mph W6.9 kmh W 7.0 mph11.3 kmh 30.03 in1016.9 mb 0.00 in0.0 mm 0.00 in/hr0.0 mm/hr 0.00 in0.0 mm
01:06 PM 68.7°F20.4°C 40.7°F4.8°C 36% 3.8 mph NW6.1 kmh NW 7.0 mph11.3 kmh 30.03 in1016.9 mb 0.00 in0.0 mm 0.00 in/hr0.0 mm/hr 0.00 in0.0 mm
01:05 PM 68.7°F20.4°C 40.7°F4.8°C 36% 3.8 mph SW6.1 kmh SW 7.0 mph11.3 kmh 30.03 in1016.9 mb 0.00 in0.0 mm 0.00 in/hr0.0 mm/hr 0.00 in0.0 mm
01:04 PM 68.7°F20.4°C 40.7°F4.8°C 36% 6.4 mph WNW10.3 kmh WNW 7.5 mph12.1 kmh 30.03 in1016.9 mb 0.00 in0.0 mm 0.00 in/hr0.0 mm/hr 0.00 in0.0 mm
01:02 PM 68.7°F20.4°C 40.7°F4.8°C 36% 3.8 mph NW6.1 kmh NW 7.5 mph12.1 kmh 30.03 in1016.9 mb 0.00 in0.0 mm 0.00 in/hr0.0 mm/hr 0.00 in0.0 mm
01:01 PM 68.7°F20.4°C 40.7°F4.8°C 36% 6.4 mph NE10.3 kmh NE 7.5 mph12.1 kmh 30.03 in1016.9 mb 0.00 in0.0 mm 0.00 in/hr0.0 mm/hr 0.00 in0.0 mm
01:00 PM 68.7°F20.4°C 40.7°F4.8°C 36% 3.8 mph ENE6.1 kmh ENE 7.5 mph12.1 kmh 30.03 in1016.9 mb 0.00 in0.0 mm 0.00 in/hr0.0 mm/hr 0.00 in0.0 mm
12:58 PM 68.7°F20.4°C 40.7°F4.8°C 36% 7.0 mph WSW11.3 kmh WSW 7.5 mph12.1 kmh 30.03 in1016.9 mb 0.00 in0.0 mm 0.00 in/hr0.0 mm/hr 0.00 in0.0 mm
12:57 PM 68.9°F20.5°C 40.9°F4.9°C 36% 7.5 mph NW12.1 kmh NW 7.5 mph12.1 kmh 30.03 in1016.9 mb 0.00 in0.0 mm 0.00 in/hr0.0 mm/hr 0.00 in0.0 mm
12:55 PM 69.1°F20.6°C 41.0°F5.0°C 36% 3.8 mph SSW6.1 kmh SSW 9.7 mph15.6 kmh 30.03 in1016.9 mb 0.00 in0.0 mm 0.00 in/hr0.0 mm/hr 0.00 in0.0 mm
12:54 PM 69.1°F20.6°C 41.0°F5.0°C 36% 5.9 mph NNW9.5 kmh NNW 9.7 mph15.6 kmh 30.03 in1016.9 mb 0.00 in0.0 mm 0.00 in/hr0.0 mm/hr 0.00 in0.0 mm
12:52 PM 69.3°F20.7°C 41.2°F5.1°C 36% 4.3 mph W6.9 kmh W 9.7 mph15.6 kmh 30.03 in1016.9 mb 0.00 in0.0 mm 0.00 in/hr0.0 mm/hr 0.00 in0.0 mm
12:51 PM 69.4°F20.8°C 41.4°F5.2°C 36% 3.8 mph N6.1 kmh N 9.7 mph15.6 kmh 30.03 in1016.9 mb 0.00 in0.0 mm 0.00 in/hr0.0 mm/hr 0.00 in0.0 mm
12:49 PM 69.6°F20.9°C 41.5°F5.3°C 36% 7.0 mph NW11.3 kmh NW 9.7 mph15.6 kmh 30.03 in1016.9 mb 0.00 in0.0 mm 0.00 in/hr0.0 mm/hr 0.00 in0.0 mm
12:48 PM 69.6°F20.9°C 41.5°F5.3°C 36% 7.0 mph W11.3 kmh W 9.7 mph15.6 kmh 30.03 in1016.9 mb 0.00 in0.0 mm 0.00 in/hr0.0 mm/hr 0.00 in0.0 mm
12:47 PM 69.6°F20.9°C 41.5°F5.3°C 36% 2.7 mph WNW4.3 kmh WNW 9.7 mph15.6 kmh 30.03 in1016.9 mb 0.00 in0.0 mm 0.00 in/hr0.0 mm/hr 0.00 in0.0 mm
12:45 PM 69.6°F20.9°C 41.5°F5.3°C 36% 4.8 mph WNW7.7 kmh WNW 9.7 mph15.6 kmh 30.03 in1016.9 mb 0.00 in0.0 mm 0.00 in/hr0.0 mm/hr 0.00 in0.0 mm
12:44 PM 69.4°F20.8°C 41.4°F5.2°C 36% 3.8 mph NW6.1 kmh NW 9.9 mph15.9 kmh 30.03 in1016.9 mb 0.00 in0.0 mm 0.00 in/hr0.0 mm/hr 0.00 in0.0 mm
12:43 PM 69.4°F20.8°C 41.4°F5.2°C 36% 7.5 mph WNW12.1 kmh WNW 9.9 mph15.9 kmh 30.03 in1016.9 mb 0.00 in0.0 mm 0.00 in/hr0.0 mm/hr 0.00 in0.0 mm
12:41 PM 69.3°F20.7°C 41.2°F5.1°C 36% 7.5 mph WNW12.1 kmh WNW 9.9 mph15.9 kmh 30.03 in1016.9 mb 0.00 in0.0 mm 0.00 in/hr0.0 mm/hr 0.00 in0.0 mm
12:40 PM 69.1°F20.6°C 41.0°F5.0°C 36% 6.4 mph NW10.3 kmh NW 9.9 mph15.9 kmh 30.03 in1016.9 mb 0.00 in0.0 mm 0.00 in/hr0.0 mm/hr 0.00 in0.0 mm
12:38 PM 69.1°F20.6°C 41.0°F5.0°C 36% 9.9 mph WSW15.9 kmh WSW 9.9 mph15.9 kmh 30.03 in1016.9 mb 0.00 in0.0 mm 0.00 in/hr0.0 mm/hr 0.00 in0.0 mm
12:37 PM 69.1°F20.6°C 41.0°F5.0°C 36% 3.8 mph SW6.1 kmh SW 9.9 mph15.9 kmh 30.00 in1015.9 mb 0.00 in0.0 mm 0.00 in/hr0.0 mm/hr 0.00 in0.0 mm
12:36 PM 69.1°F20.6°C 41.0°F5.0°C 36% 6.4 mph 10.3 kmh 9.9 mph15.9 kmh 30.00 in1015.9 mb 0.00 in0.0 mm 0.00 in/hr0.0 mm/hr 0.00 in0.0 mm
12:34 PM 69.3°F20.7°C 41.2°F5.1°C 36% 4.3 mph N6.9 kmh N 12.6 mph20.3 kmh 30.00 in1015.9 mb 0.00 in0.0 mm 0.00 in/hr0.0 mm/hr 0.00 in0.0 mm
12:33 PM 69.4°F20.8°C 41.4°F5.2°C 36% 3.8 mph NNW6.1 kmh NNW 12.6 mph20.3 kmh 30.00 in1015.9 mb 0.00 in0.0 mm 0.00 in/hr0.0 mm/hr 0.00 in0.0 mm
12:31 PM 69.4°F20.8°C 41.4°F5.2°C 36% 4.3 mph SSW6.9 kmh SSW 12.6 mph20.3 kmh 30.00 in1015.9 mb 0.00 in0.0 mm 0.00 in/hr0.0 mm/hr 0.00 in0.0 mm
12:30 PM 69.6°F20.9°C 41.5°F5.3°C 36% 9.9 mph NW15.9 kmh NW 12.6 mph20.3 kmh 30.00 in1015.9 mb 0.00 in0.0 mm 0.00 in/hr0.0 mm/hr 0.00 in0.0 mm
12:29 PM 69.4°F20.8°C 41.4°F5.2°C 36% 7.0 mph W11.3 kmh W 12.6 mph20.3 kmh 30.00 in1015.9 mb 0.00 in0.0 mm 0.00 in/hr0.0 mm/hr 0.00 in0.0 mm
12:28 PM 69.4°F20.8°C 41.4°F5.2°C 36% 12.6 mph N20.3 kmh N 12.6 mph20.3 kmh 30.00 in1015.9 mb 0.00 in0.0 mm 0.00 in/hr0.0 mm/hr 0.00 in0.0 mm
12:26 PM 69.1°F20.6°C 41.0°F5.0°C 36% 6.4 mph N10.3 kmh N 12.6 mph20.3 kmh 30.00 in1015.9 mb 0.00 in0.0 mm 0.00 in/hr0.0 mm/hr 0.00 in0.0 mm
12:24 PM 68.7°F20.4°C 40.7°F4.8°C 36% 6.4 mph WNW10.3 kmh WNW 12.6 mph20.3 kmh 30.00 in1015.9 mb 0.00 in0.0 mm 0.00 in/hr0.0 mm/hr 0.00 in0.0 mm
12:23 PM 68.7°F20.4°C 40.7°F4.8°C 36% 6.4 mph WNW10.3 kmh WNW 12.6 mph20.3 kmh 30.00 in1015.9 mb 0.00 in0.0 mm 0.00 in/hr0.0 mm/hr 0.00 in0.0 mm
12:21 PM 68.7°F20.4°C 40.7°F4.8°C 36% 7.0 mph WSW11.3 kmh WSW 12.6 mph20.3 kmh 30.00 in1015.9 mb 0.00 in0.0 mm 0.00 in/hr0.0 mm/hr 0.00 in0.0 mm
12:20 PM 68.7°F20.4°C 40.7°F4.8°C 36% 9.9 mph N15.9 kmh N 9.9 mph15.9 kmh 30.00 in1015.9 mb 0.00 in0.0 mm 0.00 in/hr0.0 mm/hr 0.00 in0.0 mm
12:19 PM 68.7°F20.4°C 40.7°F4.8°C 36% 3.8 mph NW6.1 kmh NW 7.5 mph12.1 kmh 30.00 in1015.9 mb 0.00 in0.0 mm 0.00 in/hr0.0 mm/hr 0.00 in0.0 mm
12:17 PM 68.5°F20.3°C 40.6°F4.8°C 36% 3.8 mph WSW6.1 kmh WSW 7.5 mph12.1 kmh 30.00 in1015.9 mb 0.00 in0.0 mm 0.00 in/hr0.0 mm/hr 0.00 in0.0 mm
12:16 PM 68.5°F20.3°C 40.6°F4.8°C 36% 7.5 mph WNW12.1 kmh WNW 7.5 mph12.1 kmh 30.00 in1015.9 mb 0.00 in0.0 mm 0.00 in/hr0.0 mm/hr 0.00 in0.0 mm
12:15 PM 68.5°F20.3°C 40.6°F4.8°C 36% 3.2 mph W5.1 kmh W 7.5 mph12.1 kmh 30.00 in1015.9 mb 0.00 in0.0 mm 0.00 in/hr0.0 mm/hr 0.00 in0.0 mm
12:13 PM 68.4°F20.2°C 40.4°F4.7°C 36% 4.3 mph WNW6.9 kmh WNW 8.1 mph13.0 kmh 30.00 in1015.9 mb 0.00 in0.0 mm 0.00 in/hr0.0 mm/hr 0.00 in0.0 mm
12:12 PM 68.4°F20.2°C 40.4°F4.7°C 36% 4.3 mph N6.9 kmh N 9.1 mph14.6 kmh 30.00 in1015.9 mb 0.00 in0.0 mm 0.00 in/hr0.0 mm/hr 0.00 in0.0 mm
12:11 PM 68.4°F20.2°C 40.4°F4.7°C 36% 3.8 mph NNW6.1 kmh NNW 9.7 mph15.6 kmh 30.00 in1015.9 mb 0.00 in0.0 mm 0.00 in/hr0.0 mm/hr 0.00 in0.0 mm
12:09 PM 68.4°F20.2°C 40.4°F4.7°C 36% 6.4 mph S10.3 kmh S 9.7 mph15.6 kmh 30.00 in1015.9 mb 0.00 in0.0 mm 0.00 in/hr0.0 mm/hr 0.00 in0.0 mm
12:08 PM 68.4°F20.2°C 40.4°F4.7°C 36% 5.9 mph NE9.5 kmh NE 9.7 mph15.6 kmh 30.00 in1015.9 mb 0.00 in0.0 mm 0.00 in/hr0.0 mm/hr 0.00 in0.0 mm
12:06 PM 68.4°F20.2°C 40.4°F4.7°C 36% 4.3 mph NW6.9 kmh NW 9.7 mph15.6 kmh 30.00 in1015.9 mb 0.00 in0.0 mm 0.00 in/hr0.0 mm/hr 0.00 in0.0 mm
12:05 PM 68.4°F20.2°C 40.4°F4.7°C 36% 7.0 mph NNW11.3 kmh NNW 9.7 mph15.6 kmh 30.00 in1015.9 mb 0.00 in0.0 mm 0.00 in/hr0.0 mm/hr 0.00 in0.0 mm
12:04 PM 68.4°F20.2°C 40.4°F4.7°C 36% 7.5 mph N12.1 kmh N 7.5 mph12.1 kmh 30.00 in1015.9 mb 0.00 in0.0 mm 0.00 in/hr0.0 mm/hr 0.00 in0.0 mm
12:02 PM 68.4°F20.2°C 40.4°F4.7°C 36% 4.3 mph W6.9 kmh W 7.5 mph12.1 kmh 30.00 in1015.9 mb 0.00 in0.0 mm 0.00 in/hr0.0 mm/hr 0.00 in0.0 mm
12:01 PM 68.4°F20.2°C 40.4°F4.7°C 36% 3.2 mph NW5.1 kmh NW 7.5 mph12.1 kmh 30.00 in1015.9 mb 0.00 in0.0 mm 0.00 in/hr0.0 mm/hr 0.00 in0.0 mm
12:00 PM 68.4°F20.2°C 40.4°F4.7°C 36% 4.8 mph NW7.7 kmh NW 7.5 mph12.1 kmh 30.00 in1015.9 mb 0.00 in0.0 mm 0.00 in/hr0.0 mm/hr 0.00 in0.0 mm
11:59 AM 68.2°F20.1°C 40.2°F4.6°C 36% 3.2 mph NW5.1 kmh NW 9.9 mph15.9 kmh 30.00 in1015.9 mb 0.00 in0.0 mm 0.00 in/hr0.0 mm/hr 0.00 in0.0 mm
11:58 AM 68.2°F20.1°C 40.2°F4.6°C 36% 4.8 mph W7.7 kmh W 9.9 mph15.9 kmh 30.00 in1015.9 mb 0.00 in0.0 mm 0.00 in/hr0.0 mm/hr 0.00 in0.0 mm
11:56 AM 68.2°F20.1°C 40.2°F4.6°C 36% 3.2 mph WNW5.1 kmh WNW 10.5 mph16.9 kmh 30.00 in1015.9 mb 0.00 in0.0 mm 0.00 in/hr0.0 mm/hr 0.00 in0.0 mm
11:55 AM 68.2°F20.1°C 40.2°F4.6°C 36% 3.8 mph NNW6.1 kmh NNW 10.5 mph16.9 kmh 30.00 in1015.9 mb 0.00 in0.0 mm 0.00 in/hr0.0 mm/hr 0.00 in0.0 mm
11:54 AM 68.2°F20.1°C 40.2°F4.6°C 36% 3.2 mph WNW5.1 kmh WNW 10.5 mph16.9 kmh 30.00 in1015.9 mb 0.00 in0.0 mm 0.00 in/hr0.0 mm/hr 0.00 in0.0 mm
11:52 AM 68.4°F20.2°C 40.4°F4.7°C 36% 9.9 mph NNW15.9 kmh NNW 12.1 mph19.5 kmh 30.00 in1015.9 mb 0.00 in0.0 mm 0.00 in/hr0.0 mm/hr 0.00 in0.0 mm
11:51 AM 68.4°F20.2°C 40.4°F4.7°C 36% 6.4 mph N10.3 kmh N 12.1 mph19.5 kmh 30.00 in1015.9 mb 0.00 in0.0 mm 0.00 in/hr0.0 mm/hr 0.00 in0.0 mm
11:49 AM 68.5°F20.3°C 40.6°F4.8°C 36% 7.0 mph NNW11.3 kmh NNW 12.1 mph19.5 kmh 30.00 in1015.9 mb 0.00 in0.0 mm 0.00 in/hr0.0 mm/hr 0.00 in0.0 mm
11:48 AM 68.5°F20.3°C 40.6°F4.8°C 36% 4.8 mph NW7.7 kmh NW 12.1 mph19.5 kmh 30.00 in1015.9 mb 0.00 in0.0 mm 0.00 in/hr0.0 mm/hr 0.00 in0.0 mm
11:47 AM 68.7°F20.4°C 40.7°F4.8°C 36% 9.1 mph W14.6 kmh W 13.2 mph21.2 kmh 30.00 in1015.9 mb 0.00 in0.0 mm 0.00 in/hr0.0 mm/hr 0.00 in0.0 mm
11:45 AM 68.9°F20.5°C 40.9°F4.9°C 36% 7.0 mph WNW11.3 kmh WNW 13.2 mph21.2 kmh 30.00 in1015.9 mb 0.00 in0.0 mm 0.00 in/hr0.0 mm/hr 0.00 in0.0 mm
11:44 AM 68.9°F20.5°C 40.9°F4.9°C 36% 7.0 mph NW11.3 kmh NW 13.2 mph21.2 kmh 30.00 in1015.9 mb 0.00 in0.0 mm 0.00 in/hr0.0 mm/hr 0.00 in0.0 mm
11:42 AM 68.9°F20.5°C 40.9°F4.9°C 36% 6.4 mph N10.3 kmh N 13.2 mph21.2 kmh 30.00 in1015.9 mb 0.00 in0.0 mm 0.00 in/hr0.0 mm/hr 0.00 in0.0 mm
11:41 AM 68.9°F20.5°C 40.9°F4.9°C 36% 7.0 mph WNW11.3 kmh WNW 13.2 mph21.2 kmh 30.00 in1015.9 mb 0.00 in0.0 mm 0.00 in/hr0.0 mm/hr 0.00 in0.0 mm
11:40 AM 68.7°F20.4°C 40.7°F4.8°C 36% 4.3 mph W6.9 kmh W 12.6 mph20.3 kmh 30.00 in1015.9 mb 0.00 in0.0 mm 0.00 in/hr0.0 mm/hr 0.00 in0.0 mm
11:39 AM 68.7°F20.4°C 40.7°F4.8°C 36% 9.9 mph WNW15.9 kmh WNW 12.6 mph20.3 kmh 30.00 in1015.9 mb 0.00 in0.0 mm 0.00 in/hr0.0 mm/hr 0.00 in0.0 mm
11:37 AM 68.7°F20.4°C 40.7°F4.8°C 36% 7.5 mph 12.1 kmh 12.6 mph20.3 kmh 30.00 in1015.9 mb 0.00 in0.0 mm 0.00 in/hr0.0 mm/hr 0.00 in0.0 mm
11:35 AM 68.5°F20.3°C 40.6°F4.8°C 36% 7.5 mph NW12.1 kmh NW 12.6 mph20.3 kmh 30.00 in1015.9 mb 0.00 in0.0 mm 0.00 in/hr0.0 mm/hr 0.00 in0.0 mm
11:34 AM 68.7°F20.4°C 40.7°F4.8°C 36% 4.3 mph NNE6.9 kmh NNE 12.6 mph20.3 kmh 30.00 in1015.9 mb 0.00 in0.0 mm 0.00 in/hr0.0 mm/hr 0.00 in0.0 mm
11:33 AM 68.7°F20.4°C 40.7°F4.8°C 36% 4.8 mph W7.7 kmh W 15.3 mph24.6 kmh 30.00 in1015.9 mb 0.00 in0.0 mm 0.00 in/hr0.0 mm/hr 0.00 in0.0 mm
11:31 AM 69.1°F20.6°C 41.0°F5.0°C 36% 6.4 mph W10.3 kmh W 15.3 mph24.6 kmh 30.00 in1015.9 mb 0.00 in0.0 mm 0.00 in/hr0.0 mm/hr 0.00 in0.0 mm
11:30 AM 69.4°F20.8°C 41.4°F5.2°C 36% 9.9 mph W15.9 kmh W 15.3 mph24.6 kmh 30.00 in1015.9 mb 0.00 in0.0 mm 0.00 in/hr0.0 mm/hr 0.00 in0.0 mm
11:29 AM 69.6°F20.9°C 41.5°F5.3°C 36% 6.4 mph W10.3 kmh W 15.3 mph24.6 kmh 30.00 in1015.9 mb 0.00 in0.0 mm 0.00 in/hr0.0 mm/hr 0.00 in0.0 mm
11:28 AM 69.8°F21.0°C 41.7°F5.4°C 36% 6.4 mph WNW10.3 kmh WNW 15.3 mph24.6 kmh 30.00 in1015.9 mb 0.00 in0.0 mm 0.00 in/hr0.0 mm/hr 0.00 in0.0 mm
11:26 AM 70.2°F21.2°C 42.0°F5.6°C 36% 7.0 mph WSW11.3 kmh WSW 13.2 mph21.2 kmh 30.00 in1015.9 mb 0.00 in0.0 mm 0.00 in/hr0.0 mm/hr 0.00 in0.0 mm
11:24 AM 70.2°F21.2°C 42.0°F5.6°C 36% 9.9 mph NW15.9 kmh NW 13.2 mph21.2 kmh 30.00 in1015.9 mb 0.00 in0.0 mm 0.00 in/hr0.0 mm/hr 0.00 in0.0 mm
11:23 AM 70.2°F21.2°C 42.0°F5.6°C 36% 7.5 mph NNW12.1 kmh NNW 7.5 mph12.1 kmh 30.00 in1015.9 mb 0.00 in0.0 mm 0.00 in/hr0.0 mm/hr 0.00 in0.0 mm
11:21 AM 69.8°F21.0°C 41.7°F5.4°C 36% 5.9 mph WNW9.5 kmh WNW 10.5 mph16.9 kmh 30.00 in1015.9 mb 0.00 in0.0 mm 0.00 in/hr0.0 mm/hr 0.00 in0.0 mm
11:19 AM 69.8°F21.0°C 41.7°F5.4°C 36% 3.8 mph N6.1 kmh N 10.5 mph16.9 kmh 30.00 in1015.9 mb 0.00 in0.0 mm 0.00 in/hr0.0 mm/hr 0.00 in0.0 mm
11:17 AM 69.6°F20.9°C 41.5°F5.3°C 36% 2.7 mph S4.3 kmh S 10.5 mph16.9 kmh 30.00 in1015.9 mb 0.00 in0.0 mm 0.00 in/hr0.0 mm/hr 0.00 in0.0 mm
11:16 AM 69.4°F20.8°C 41.4°F5.2°C 36% 6.4 mph W10.3 kmh W 10.5 mph16.9 kmh 30.00 in1015.9 mb 0.00 in0.0 mm 0.00 in/hr0.0 mm/hr 0.00 in0.0 mm
11:15 AM 69.4°F20.8°C 41.4°F5.2°C 36% 3.8 mph N6.1 kmh N 9.9 mph15.9 kmh 30.00 in1015.9 mb 0.00 in0.0 mm 0.00 in/hr0.0 mm/hr 0.00 in0.0 mm
11:13 AM 69.3°F20.7°C 41.2°F5.1°C 36% 8.1 mph NW13.0 kmh NW 9.9 mph15.9 kmh 30.00 in1015.9 mb 0.00 in0.0 mm 0.00 in/hr0.0 mm/hr 0.00 in0.0 mm
11:12 AM 69.1°F20.6°C 41.0°F5.0°C 36% 3.2 mph N5.1 kmh N 9.9 mph15.9 kmh 30.00 in1015.9 mb 0.00 in0.0 mm 0.00 in/hr0.0 mm/hr 0.00 in0.0 mm
11:10 AM 69.1°F20.6°C 41.0°F5.0°C 36% 9.7 mph W15.6 kmh W 10.5 mph16.9 kmh 30.00 in1015.9 mb 0.00 in0.0 mm 0.00 in/hr0.0 mm/hr 0.00 in0.0 mm
11:09 AM 69.1°F20.6°C 41.0°F5.0°C 36% 9.1 mph NW14.6 kmh NW 13.7 mph22.0 kmh 30.00 in1015.9 mb 0.00 in0.0 mm 0.00 in/hr0.0 mm/hr 0.00 in0.0 mm
11:07 AM 69.3°F20.7°C 41.2°F5.1°C 36% 3.8 mph NNE6.1 kmh NNE 13.7 mph22.0 kmh 30.00 in1015.9 mb 0.00 in0.0 mm 0.00 in/hr0.0 mm/hr 0.00 in0.0 mm
11:06 AM 69.3°F20.7°C 41.2°F5.1°C 36% 6.4 mph WSW10.3 kmh WSW 13.7 mph22.0 kmh 30.00 in1015.9 mb 0.00 in0.0 mm 0.00 in/hr0.0 mm/hr 0.00 in0.0 mm
11:05 AM 69.6°F20.9°C 41.5°F5.3°C 36% 6.4 mph WSW10.3 kmh WSW 13.7 mph22.0 kmh 30.00 in1015.9 mb 0.00 in0.0 mm 0.00 in/hr0.0 mm/hr 0.00 in0.0 mm
11:03 AM 69.6°F20.9°C 41.5°F5.3°C 36% 4.3 mph WNW6.9 kmh WNW 13.7 mph22.0 kmh 30.00 in1015.9 mb 0.00 in0.0 mm 0.00 in/hr0.0 mm/hr 0.00 in0.0 mm
11:02 AM 69.8°F21.0°C 41.7°F5.4°C 36% 13.7 mph W22.0 kmh W 13.7 mph22.0 kmh 30.00 in1015.9 mb 0.00 in0.0 mm 0.00 in/hr0.0 mm/hr 0.00 in0.0 mm
11:00 AM 69.8°F21.0°C 41.7°F5.4°C 36% 7.5 mph SW12.1 kmh SW 11.5 mph18.5 kmh 30.00 in1015.9 mb 0.00 in0.0 mm 0.00 in/hr0.0 mm/hr 0.00 in0.0 mm
10:59 AM 69.8°F21.0°C 41.7°F5.4°C 36% 7.5 mph WSW12.1 kmh WSW 11.5 mph18.5 kmh 30.00 in1015.9 mb 0.00 in0.0 mm 0.00 in/hr0.0 mm/hr 0.00 in0.0 mm
10:58 AM 69.6°F20.9°C 41.5°F5.3°C 36% 11.0 mph WNW17.7 kmh WNW 11.5 mph18.5 kmh 30.00 in1015.9 mb 0.00 in0.0 mm 0.00 in/hr0.0 mm/hr 0.00 in0.0 mm
10:56 AM 69.6°F20.9°C 41.5°F5.3°C 36% 4.3 mph NW6.9 kmh NW 12.6 mph20.3 kmh 30.00 in1015.9 mb 0.00 in0.0 mm 0.00 in/hr0.0 mm/hr 0.00 in0.0 mm
10:55 AM 69.4°F20.8°C 41.4°F5.2°C 36% 7.5 mph NW12.1 kmh NW 12.6 mph20.3 kmh 30.00 in1015.9 mb 0.00 in0.0 mm 0.00 in/hr0.0 mm/hr 0.00 in0.0 mm
10:54 AM 69.4°F20.8°C 41.4°F5.2°C 36% 7.0 mph W11.3 kmh W 12.6 mph20.3 kmh 30.00 in1015.9 mb 0.00 in0.0 mm 0.00 in/hr0.0 mm/hr 0.00 in0.0 mm
10:52 AM 69.4°F20.8°C 41.4°F5.2°C 36% 7.0 mph W11.3 kmh W 12.6 mph20.3 kmh 30.00 in1015.9 mb 0.00 in0.0 mm 0.00 in/hr0.0 mm/hr 0.00 in0.0 mm
10:51 AM 69.4°F20.8°C 41.4°F5.2°C 36% 6.4 mph WNW10.3 kmh WNW 12.6 mph20.3 kmh 30.00 in1015.9 mb 0.00 in0.0 mm 0.00 in/hr0.0 mm/hr 0.00 in0.0 mm
10:50 AM 69.4°F20.8°C 41.4°F5.2°C 36% 3.8 mph W6.1 kmh W 11.5 mph18.5 kmh 30.00 in1015.9 mb 0.00 in0.0 mm 0.00 in/hr0.0 mm/hr 0.00 in0.0 mm
10:48 AM 69.4°F20.8°C 41.4°F5.2°C 36% 4.3 mph 6.9 kmh 10.5 mph16.9 kmh 30.00 in1015.9 mb 0.00 in0.0 mm 0.00 in/hr0.0 mm/hr 0.00 in0.0 mm
10:46 AM 69.1°F20.6°C 41.0°F5.0°C 36% 3.8 mph N6.1 kmh N 13.2 mph21.2 kmh 30.00 in1015.9 mb 0.00 in0.0 mm 0.00 in/hr0.0 mm/hr 0.00 in0.0 mm
10:44 AM 68.9°F20.5°C 40.9°F4.9°C 36% 4.3 mph 6.9 kmh 13.2 mph21.2 kmh 30.00 in1015.9 mb 0.00 in0.0 mm 0.00 in/hr0.0 mm/hr 0.00 in0.0 mm
10:43 AM 68.7°F20.4°C 40.7°F4.8°C 36% 7.5 mph W12.1 kmh W 13.2 mph21.2 kmh 30.00 in1015.9 mb 0.00 in0.0 mm 0.00 in/hr0.0 mm/hr 0.00 in0.0 mm
10:41 AM 68.7°F20.4°C 40.7°F4.8°C 36% 7.5 mph NW12.1 kmh NW 13.2 mph21.2 kmh 30.00 in1015.9 mb 0.00 in0.0 mm 0.00 in/hr0.0 mm/hr 0.00 in0.0 mm
10:39 AM 68.5°F20.3°C 40.6°F4.8°C 36% 5.4 mph W8.7 kmh W 13.2 mph21.2 kmh 30.00 in1015.9 mb 0.00 in0.0 mm 0.00 in/hr0.0 mm/hr 0.00 in0.0 mm
10:38 AM 68.5°F20.3°C 40.6°F4.8°C 36% 7.0 mph WSW11.3 kmh WSW 13.2 mph21.2 kmh 30.00 in1015.9 mb 0.00 in0.0 mm 0.00 in/hr0.0 mm/hr 0.00 in0.0 mm
10:37 AM 68.4°F20.2°C 40.4°F4.7°C 36% 4.8 mph WSW7.7 kmh WSW 13.2 mph21.2 kmh 30.00 in1015.9 mb 0.00 in0.0 mm 0.00 in/hr0.0 mm/hr 0.00 in0.0 mm
10:36 AM 68.4°F20.2°C 40.4°F4.7°C 36% 7.0 mph WNW11.3 kmh WNW 13.2 mph21.2 kmh 30.00 in1015.9 mb 0.00 in0.0 mm 0.00 in/hr0.0 mm/hr 0.00 in0.0 mm
10:34 AM 68.2°F20.1°C 40.2°F4.6°C 36% 9.7 mph WNW15.6 kmh WNW 13.2 mph21.2 kmh 30.00 in1015.9 mb 0.00 in0.0 mm 0.00 in/hr0.0 mm/hr 0.00 in0.0 mm
10:32 AM 68.0°F20.0°C 40.1°F4.5°C 36% 7.0 mph W11.3 kmh W 8.6 mph13.8 kmh 30.00 in1015.9 mb 0.00 in0.0 mm 0.00 in/hr0.0 mm/hr 0.00 in0.0 mm
10:31 AM 68.0°F20.0°C 40.1°F4.5°C 36% 3.2 mph NE5.1 kmh NE 10.5 mph16.9 kmh 30.00 in1015.9 mb 0.00 in0.0 mm 0.00 in/hr0.0 mm/hr 0.00 in0.0 mm
10:30 AM 68.0°F20.0°C 40.1°F4.5°C 36% 6.4 mph N10.3 kmh N 10.5 mph16.9 kmh 30.00 in1015.9 mb 0.00 in0.0 mm 0.00 in/hr0.0 mm/hr 0.00 in0.0 mm
10:28 AM 68.0°F20.0°C 40.1°F4.5°C 36% 3.2 mph NW5.1 kmh NW 10.5 mph16.9 kmh 30.00 in1015.9 mb 0.00 in0.0 mm 0.00 in/hr0.0 mm/hr 0.00 in0.0 mm
10:27 AM 68.0°F20.0°C 40.1°F4.5°C 36% 4.8 mph W7.7 kmh W 12.6 mph20.3 kmh 30.00 in1015.9 mb 0.00 in0.0 mm 0.00 in/hr0.0 mm/hr 0.00 in0.0 mm
10:25 AM 68.0°F20.0°C 40.1°F4.5°C 36% 10.5 mph NW16.9 kmh NW 12.6 mph20.3 kmh 30.00 in1015.9 mb 0.00 in0.0 mm 0.00 in/hr0.0 mm/hr 0.00 in0.0 mm
10:24 AM 68.0°F20.0°C 40.1°F4.5°C 36% 4.8 mph WNW7.7 kmh WNW 12.6 mph20.3 kmh 30.00 in1015.9 mb 0.00 in0.0 mm 0.00 in/hr0.0 mm/hr 0.00 in0.0 mm
10:23 AM 68.0°F20.0°C 40.1°F4.5°C 36% 9.9 mph WNW15.9 kmh WNW 12.6 mph20.3 kmh 30.00 in1015.9 mb 0.00 in0.0 mm 0.00 in/hr0.0 mm/hr 0.00 in0.0 mm
10:21 AM 68.0°F20.0°C 40.8°F4.9°C 37% 9.1 mph WSW14.6 kmh WSW 12.6 mph20.3 kmh 30.00 in1015.9 mb 0.00 in0.0 mm 0.00 in/hr0.0 mm/hr 0.00 in0.0 mm
10:20 AM 67.8°F19.9°C 40.6°F4.8°C 37% 8.1 mph N13.0 kmh N 10.5 mph16.9 kmh 30.00 in1015.9 mb 0.00 in0.0 mm 0.00 in/hr0.0 mm/hr 0.00 in0.0 mm
10:19 AM 67.6°F19.8°C 40.5°F4.7°C 37% 4.3 mph W6.9 kmh W 10.5 mph16.9 kmh 30.00 in1015.9 mb 0.00 in0.0 mm 0.00 in/hr0.0 mm/hr 0.00 in0.0 mm
10:17 AM 67.6°F19.8°C 40.5°F4.7°C 37% 3.2 mph NW5.1 kmh NW 10.5 mph16.9 kmh 30.00 in1015.9 mb 0.00 in0.0 mm 0.00 in/hr0.0 mm/hr 0.00 in0.0 mm
10:16 AM 67.6°F19.8°C 40.5°F4.7°C 37% 4.3 mph WNW6.9 kmh WNW 10.5 mph16.9 kmh 30.00 in1015.9 mb 0.00 in0.0 mm 0.00 in/hr0.0 mm/hr 0.00 in0.0 mm
10:14 AM 67.5°F19.7°C 40.3°F4.6°C 37% 2.7 mph NNW4.3 kmh NNW 10.5 mph16.9 kmh 30.00 in1015.9 mb 0.00 in0.0 mm 0.00 in/hr0.0 mm/hr 0.00 in0.0 mm
10:13 AM 67.5°F19.7°C 40.3°F4.6°C 37% 5.9 mph W9.5 kmh W 7.5 mph12.1 kmh 30.00 in1015.9 mb 0.00 in0.0 mm 0.00 in/hr0.0 mm/hr 0.00 in0.0 mm
10:12 AM 67.5°F19.7°C 40.3°F4.6°C 37% 4.3 mph NW6.9 kmh NW 7.5 mph12.1 kmh 30.00 in1015.9 mb 0.00 in0.0 mm 0.00 in/hr0.0 mm/hr 0.00 in0.0 mm
10:10 AM 67.5°F19.7°C 40.3°F4.6°C 37% 3.8 mph NNW6.1 kmh NNW 7.5 mph12.1 kmh 30.00 in1015.9 mb 0.00 in0.0 mm 0.00 in/hr0.0 mm/hr 0.00 in0.0 mm
10:09 AM 67.5°F19.7°C 40.3°F4.6°C 37% 7.0 mph N11.3 kmh N 7.5 mph12.1 kmh 30.00 in1015.9 mb 0.00 in0.0 mm 0.00 in/hr0.0 mm/hr 0.00 in0.0 mm
10:07 AM 67.3°F19.6°C 40.1°F4.5°C 37% 2.7 mph NW4.3 kmh NW 9.9 mph15.9 kmh 30.00 in1015.9 mb 0.00 in0.0 mm 0.00 in/hr0.0 mm/hr 0.00 in0.0 mm
10:06 AM 67.3°F19.6°C 40.1°F4.5°C 37% 3.2 mph W5.1 kmh W 9.9 mph15.9 kmh 30.00 in1015.9 mb 0.00 in0.0 mm 0.00 in/hr0.0 mm/hr 0.00 in0.0 mm
10:05 AM 67.1°F19.5°C 40.0°F4.4°C 37% 6.4 mph N10.3 kmh N 11.5 mph18.5 kmh 30.00 in1015.9 mb 0.00 in0.0 mm 0.00 in/hr0.0 mm/hr 0.00 in0.0 mm
10:03 AM 67.1°F19.5°C 40.0°F4.4°C 37% 3.2 mph NW5.1 kmh NW 11.5 mph18.5 kmh 30.00 in1015.9 mb 0.00 in0.0 mm 0.00 in/hr0.0 mm/hr 0.00 in0.0 mm
10:02 AM 67.1°F19.5°C 40.0°F4.4°C 37% 7.0 mph NW11.3 kmh NW 11.5 mph18.5 kmh 30.00 in1015.9 mb 0.00 in0.0 mm 0.00 in/hr0.0 mm/hr 0.00 in0.0 mm
10:01 AM 66.9°F19.4°C 39.8°F4.3°C 37% Calm Calm 11.5 mph18.5 kmh 30.00 in1015.9 mb 0.00 in0.0 mm 0.00 in/hr0.0 mm/hr 0.00 in0.0 mm
09:59 AM 66.9°F19.4°C 39.8°F4.3°C 37% 9.9 mph WSW15.9 kmh WSW 11.5 mph18.5 kmh 30.00 in1015.9 mb 0.00 in0.0 mm 0.00 in/hr0.0 mm/hr 0.00 in0.0 mm
09:57 AM 66.9°F19.4°C 39.8°F4.3°C 37% 11.5 mph W18.5 kmh W 11.5 mph18.5 kmh 30.00 in1015.9 mb 0.00 in0.0 mm 0.00 in/hr0.0 mm/hr 0.00 in0.0 mm
09:56 AM 66.9°F19.4°C 39.8°F4.3°C 37% 6.4 mph W10.3 kmh W 9.7 mph15.6 kmh 30.00 in1015.9 mb 0.00 in0.0 mm 0.00 in/hr0.0 mm/hr 0.00 in0.0 mm
09:55 AM 66.7°F19.3°C 39.7°F4.3°C 37% 3.2 mph NNW5.1 kmh NNW 9.7 mph15.6 kmh 30.00 in1015.9 mb 0.00 in0.0 mm 0.00 in/hr0.0 mm/hr 0.00 in0.0 mm
09:53 AM 66.7°F19.3°C 39.7°F4.3°C 37% 3.8 mph W6.1 kmh W 10.5 mph16.9 kmh 30.00 in1015.9 mb 0.00 in0.0 mm 0.00 in/hr0.0 mm/hr 0.00 in0.0 mm
09:52 AM 66.6°F19.2°C 39.5°F4.2°C 37% 6.4 mph WNW10.3 kmh WNW 15.8 mph25.4 kmh 30.00 in1015.9 mb 0.00 in0.0 mm 0.00 in/hr0.0 mm/hr 0.00 in0.0 mm
09:50 AM 66.6°F19.2°C 39.5°F4.2°C 37% 4.8 mph WNW7.7 kmh WNW 15.8 mph25.4 kmh 29.97 in1014.9 mb 0.00 in0.0 mm 0.00 in/hr0.0 mm/hr 0.00 in0.0 mm
09:49 AM 66.6°F19.2°C 39.5°F4.2°C 37% 3.8 mph W6.1 kmh W 15.8 mph25.4 kmh 29.97 in1014.9 mb 0.00 in0.0 mm 0.00 in/hr0.0 mm/hr 0.00 in0.0 mm
09:48 AM 66.6°F19.2°C 39.5°F4.2°C 37% 7.5 mph WNW12.1 kmh WNW 15.8 mph25.4 kmh 29.97 in1014.9 mb 0.00 in0.0 mm 0.00 in/hr0.0 mm/hr 0.00 in0.0 mm
09:46 AM 66.6°F19.2°C 39.5°F4.2°C 37% 9.1 mph N14.6 kmh N 15.8 mph25.4 kmh 29.97 in1014.9 mb 0.00 in0.0 mm 0.00 in/hr0.0 mm/hr 0.00 in0.0 mm
09:45 AM 66.6°F19.2°C 39.5°F4.2°C 37% 15.8 mph N25.4 kmh N 15.8 mph25.4 kmh 29.97 in1014.9 mb 0.00 in0.0 mm 0.00 in/hr0.0 mm/hr 0.00 in0.0 mm
09:43 AM 66.6°F19.2°C 39.5°F4.2°C 37% 3.8 mph NW6.1 kmh NW 12.6 mph20.3 kmh 29.97 in1014.9 mb 0.00 in0.0 mm 0.00 in/hr0.0 mm/hr 0.00 in0.0 mm
09:42 AM 66.4°F19.1°C 39.3°F4.1°C 37% 7.5 mph WNW12.1 kmh WNW 12.6 mph20.3 kmh 29.97 in1014.9 mb 0.00 in0.0 mm 0.00 in/hr0.0 mm/hr 0.00 in0.0 mm
09:41 AM 66.4°F19.1°C 39.3°F4.1°C 37% 4.8 mph NW7.7 kmh NW 12.1 mph19.5 kmh 29.97 in1014.9 mb 0.00 in0.0 mm 0.00 in/hr0.0 mm/hr 0.00 in0.0 mm
09:40 AM 66.4°F19.1°C 39.3°F4.1°C 37% 6.4 mph W10.3 kmh W 12.1 mph19.5 kmh 29.97 in1014.9 mb 0.00 in0.0 mm 0.00 in/hr0.0 mm/hr 0.00 in0.0 mm
09:38 AM 66.2°F19.0°C 39.9°F4.4°C 38% 3.2 mph SSW5.1 kmh SSW 12.6 mph20.3 kmh 29.97 in1014.9 mb 0.00 in0.0 mm 0.00 in/hr0.0 mm/hr 0.00 in0.0 mm
09:36 AM 66.2°F19.0°C 39.9°F4.4°C 38% 4.3 mph WSW6.9 kmh WSW 12.6 mph20.3 kmh 29.97 in1014.9 mb 0.00 in0.0 mm 0.00 in/hr0.0 mm/hr 0.00 in0.0 mm
09:35 AM 66.2°F19.0°C 39.9°F4.4°C 38% 6.4 mph NW10.3 kmh NW 12.6 mph20.3 kmh 29.97 in1014.9 mb 0.00 in0.0 mm 0.00 in/hr0.0 mm/hr 0.00 in0.0 mm
09:34 AM 66.0°F18.9°C 39.7°F4.3°C 38% 7.5 mph WSW12.1 kmh WSW 12.6 mph20.3 kmh 29.97 in1014.9 mb 0.00 in0.0 mm 0.00 in/hr0.0 mm/hr 0.00 in0.0 mm
09:32 AM 65.8°F18.8°C 39.6°F4.2°C 38% 9.1 mph NW14.6 kmh NW 10.5 mph16.9 kmh 29.97 in1014.9 mb 0.00 in0.0 mm 0.00 in/hr0.0 mm/hr 0.00 in0.0 mm
09:31 AM 65.8°F18.8°C 39.6°F4.2°C 38% 6.4 mph SW10.3 kmh SW 10.5 mph16.9 kmh 29.97 in1014.9 mb 0.00 in0.0 mm 0.00 in/hr0.0 mm/hr 0.00 in0.0 mm
09:30 AM 65.8°F18.8°C 39.6°F4.2°C 38% 5.9 mph NW9.5 kmh NW 10.5 mph16.9 kmh 29.97 in1014.9 mb 0.00 in0.0 mm 0.00 in/hr0.0 mm/hr 0.00 in0.0 mm
09:28 AM 65.8°F18.8°C 39.6°F4.2°C 38% 7.5 mph N12.1 kmh N 10.5 mph16.9 kmh 29.97 in1014.9 mb 0.00 in0.0 mm 0.00 in/hr0.0 mm/hr 0.00 in0.0 mm
09:27 AM 65.8°F18.8°C 39.6°F4.2°C 38% 7.0 mph WSW11.3 kmh WSW 10.5 mph16.9 kmh 29.97 in1014.9 mb 0.00 in0.0 mm 0.00 in/hr0.0 mm/hr 0.00 in0.0 mm
09:25 AM 65.7°F18.7°C 39.4°F4.1°C 38% 10.5 mph W16.9 kmh W 10.5 mph16.9 kmh 29.97 in1014.9 mb 0.00 in0.0 mm 0.00 in/hr0.0 mm/hr 0.00 in0.0 mm
09:24 AM 65.7°F18.7°C 39.4°F4.1°C 38% Calm Calm 10.5 mph16.9 kmh 29.97 in1014.9 mb 0.00 in0.0 mm 0.00 in/hr0.0 mm/hr 0.00 in0.0 mm
09:22 AM 65.7°F18.7°C 39.4°F4.1°C 38% 4.8 mph NW7.7 kmh NW 10.5 mph16.9 kmh 29.97 in1014.9 mb 0.00 in0.0 mm 0.00 in/hr0.0 mm/hr 0.00 in0.0 mm
09:21 AM 65.7°F18.7°C 39.4°F4.1°C 38% 10.5 mph NNE16.9 kmh NNE 12.6 mph20.3 kmh 29.97 in1014.9 mb 0.00 in0.0 mm 0.00 in/hr0.0 mm/hr 0.00 in0.0 mm
09:20 AM 65.7°F18.7°C 39.4°F4.1°C 38% 4.8 mph W7.7 kmh W 12.6 mph20.3 kmh 29.97 in1014.9 mb 0.00 in0.0 mm 0.00 in/hr0.0 mm/hr 0.00 in0.0 mm
09:18 AM 65.7°F18.7°C 39.4°F4.1°C 38% 6.4 mph W10.3 kmh W 12.6 mph20.3 kmh 29.97 in1014.9 mb 0.00 in0.0 mm 0.00 in/hr0.0 mm/hr 0.00 in0.0 mm
09:17 AM 65.7°F18.7°C 39.4°F4.1°C 38% 3.8 mph WSW6.1 kmh WSW 12.6 mph20.3 kmh 29.97 in1014.9 mb 0.00 in0.0 mm 0.00 in/hr0.0 mm/hr 0.00 in0.0 mm
09:15 AM 65.5°F18.6°C 39.9°F4.4°C 39% 9.1 mph WNW14.6 kmh WNW 9.1 mph14.6 kmh 29.97 in1014.9 mb 0.00 in0.0 mm 0.00 in/hr0.0 mm/hr 0.00 in0.0 mm
09:13 AM 65.3°F18.5°C 39.7°F4.3°C 39% Calm Calm 9.1 mph14.6 kmh 29.97 in1014.9 mb 0.00 in0.0 mm 0.00 in/hr0.0 mm/hr 0.00 in0.0 mm
09:11 AM 65.1°F18.4°C 39.6°F4.2°C 39% 3.8 mph WNW6.1 kmh WNW 9.7 mph15.6 kmh 29.97 in1014.9 mb 0.00 in0.0 mm 0.00 in/hr0.0 mm/hr 0.00 in0.0 mm
09:10 AM 65.1°F18.4°C 39.6°F4.2°C 39% 2.7 mph NNW4.3 kmh NNW 9.9 mph15.9 kmh 29.97 in1014.9 mb 0.00 in0.0 mm 0.00 in/hr0.0 mm/hr 0.00 in0.0 mm
09:08 AM 64.9°F18.3°C 39.4°F4.1°C 39% 4.8 mph NW7.7 kmh NW 9.9 mph15.9 kmh 29.97 in1014.9 mb 0.00 in0.0 mm 0.00 in/hr0.0 mm/hr 0.00 in0.0 mm
09:06 AM 64.8°F18.2°C 39.3°F4.1°C 39% 6.4 mph WNW10.3 kmh WNW 9.9 mph15.9 kmh 29.97 in1014.9 mb 0.00 in0.0 mm 0.00 in/hr0.0 mm/hr 0.00 in0.0 mm
09:04 AM 64.8°F18.2°C 39.3°F4.1°C 39% 4.3 mph WNW6.9 kmh WNW 9.9 mph15.9 kmh 29.97 in1014.9 mb 0.00 in0.0 mm 0.00 in/hr0.0 mm/hr 0.00 in0.0 mm
09:03 AM 64.8°F18.2°C 39.3°F4.1°C 39% 7.0 mph WSW11.3 kmh WSW 10.5 mph16.9 kmh 29.97 in1014.9 mb 0.00 in0.0 mm 0.00 in/hr0.0 mm/hr 0.00 in0.0 mm
09:01 AM 64.6°F18.1°C 39.1°F3.9°C 39% 9.7 mph WSW15.6 kmh WSW 10.5 mph16.9 kmh 29.97 in1014.9 mb 0.00 in0.0 mm 0.00 in/hr0.0 mm/hr 0.00 in0.0 mm
08:59 AM 64.6°F18.1°C 39.1°F3.9°C 39% 2.7 mph NW4.3 kmh NW 15.3 mph24.6 kmh 29.97 in1014.9 mb 0.00 in0.0 mm 0.00 in/hr0.0 mm/hr 0.00 in0.0 mm
08:57 AM 64.4°F18.0°C 38.9°F3.8°C 39% 5.9 mph NW9.5 kmh NW 15.3 mph24.6 kmh 29.97 in1014.9 mb 0.00 in0.0 mm 0.00 in/hr0.0 mm/hr 0.00 in0.0 mm
08:56 AM 64.4°F18.0°C 38.9°F3.8°C 39% 4.3 mph W6.9 kmh W 15.3 mph24.6 kmh 29.97 in1014.9 mb 0.00 in0.0 mm 0.00 in/hr0.0 mm/hr 0.00 in0.0 mm
08:55 AM 64.4°F18.0°C 38.9°F3.8°C 39% 4.3 mph W6.9 kmh W 15.3 mph24.6 kmh 29.97 in1014.9 mb 0.00 in0.0 mm 0.00 in/hr0.0 mm/hr 0.00 in0.0 mm
08:53 AM 64.4°F18.0°C 38.9°F3.8°C 39% 5.9 mph W9.5 kmh W 15.3 mph24.6 kmh 29.97 in1014.9 mb 0.00 in0.0 mm 0.00 in/hr0.0 mm/hr 0.00 in0.0 mm
08:52 AM 64.4°F18.0°C 38.9°F3.8°C 39% 7.5 mph NNW12.1 kmh NNW 9.7 mph15.6 kmh 29.94 in1013.9 mb 0.00 in0.0 mm 0.00 in/hr0.0 mm/hr 0.00 in0.0 mm
08:50 AM 64.2°F17.9°C 39.4°F4.1°C 40% 7.5 mph WNW12.1 kmh WNW 9.7 mph15.6 kmh 29.94 in1013.9 mb 0.00 in0.0 mm 0.00 in/hr0.0 mm/hr 0.00 in0.0 mm
08:49 AM 64.2°F17.9°C 39.4°F4.1°C 40% 8.1 mph W13.0 kmh W 9.7 mph15.6 kmh 29.94 in1013.9 mb 0.00 in0.0 mm 0.00 in/hr0.0 mm/hr 0.00 in0.0 mm
08:47 AM 64.2°F17.9°C 39.4°F4.1°C 40% 9.7 mph W15.6 kmh W 9.7 mph15.6 kmh 29.94 in1013.9 mb 0.00 in0.0 mm 0.00 in/hr0.0 mm/hr 0.00 in0.0 mm
08:45 AM 64.0°F17.8°C 39.3°F4.1°C 40% 6.4 mph WNW10.3 kmh WNW 9.7 mph15.6 kmh 29.94 in1013.9 mb 0.00 in0.0 mm 0.00 in/hr0.0 mm/hr 0.00 in0.0 mm
08:43 AM 64.0°F17.8°C 39.3°F4.1°C 40% 6.4 mph WSW10.3 kmh WSW 9.7 mph15.6 kmh 29.94 in1013.9 mb 0.00 in0.0 mm 0.00 in/hr0.0 mm/hr 0.00 in0.0 mm
08:42 AM 63.9°F17.7°C 39.7°F4.3°C 41% 8.6 mph WNW13.8 kmh WNW 8.6 mph13.8 kmh 29.94 in1013.9 mb 0.00 in0.0 mm 0.00 in/hr0.0 mm/hr 0.00 in0.0 mm
08:41 AM 63.9°F17.7°C 39.7°F4.3°C 41% 4.3 mph W6.9 kmh W 9.1 mph14.6 kmh 29.94 in1013.9 mb 0.00 in0.0 mm 0.00 in/hr0.0 mm/hr 0.00 in0.0 mm
08:39 AM 63.7°F17.6°C 39.6°F4.2°C 41% 7.0 mph NNW11.3 kmh NNW 9.1 mph14.6 kmh 29.94 in1013.9 mb 0.00 in0.0 mm 0.00 in/hr0.0 mm/hr 0.00 in0.0 mm
08:38 AM 63.5°F17.5°C 39.4°F4.1°C 41% 4.3 mph SW6.9 kmh SW 9.1 mph14.6 kmh 29.94 in1013.9 mb 0.00 in0.0 mm 0.00 in/hr0.0 mm/hr 0.00 in0.0 mm
08:37 AM 63.5°F17.5°C 39.4°F4.1°C 41% 3.2 mph NW5.1 kmh NW 15.8 mph25.4 kmh 29.94 in1013.9 mb 0.00 in0.0 mm 0.00 in/hr0.0 mm/hr 0.00 in0.0 mm
08:35 AM 63.5°F17.5°C 39.4°F4.1°C 41% 5.4 mph W8.7 kmh W 15.8 mph25.4 kmh 29.94 in1013.9 mb 0.00 in0.0 mm 0.00 in/hr0.0 mm/hr 0.00 in0.0 mm
08:34 AM 63.5°F17.5°C 39.4°F4.1°C 41% 3.8 mph WNW6.1 kmh WNW 15.8 mph25.4 kmh 29.94 in1013.9 mb 0.00 in0.0 mm 0.00 in/hr0.0 mm/hr 0.00 in0.0 mm
08:32 AM 63.3°F17.4°C 39.2°F4.0°C 41% 3.8 mph NW6.1 kmh NW 15.8 mph25.4 kmh 29.94 in1013.9 mb 0.00 in0.0 mm 0.00 in/hr0.0 mm/hr 0.00 in0.0 mm
08:31 AM 63.1°F17.3°C 39.1°F3.9°C 41% 4.8 mph N7.7 kmh N 15.8 mph25.4 kmh 29.94 in1013.9 mb 0.00 in0.0 mm 0.00 in/hr0.0 mm/hr 0.00 in0.0 mm
08:30 AM 63.1°F17.3°C 39.7°F4.3°C 42% 15.8 mph N25.4 kmh N 15.8 mph25.4 kmh 29.94 in1013.9 mb 0.00 in0.0 mm 0.00 in/hr0.0 mm/hr 0.00 in0.0 mm
08:28 AM 63.0°F17.2°C 39.5°F4.2°C 42% 6.4 mph SW10.3 kmh SW 12.6 mph20.3 kmh 29.94 in1013.9 mb 0.00 in0.0 mm 0.00 in/hr0.0 mm/hr 0.00 in0.0 mm
08:26 AM 63.0°F17.2°C 40.1°F4.5°C 43% 4.8 mph NW7.7 kmh NW 9.9 mph15.9 kmh 29.94 in1013.9 mb 0.00 in0.0 mm 0.00 in/hr0.0 mm/hr 0.00 in0.0 mm
08:24 AM 62.8°F17.1°C 40.0°F4.4°C 43% 4.8 mph WSW7.7 kmh WSW 9.9 mph15.9 kmh 29.94 in1013.9 mb 0.00 in0.0 mm 0.00 in/hr0.0 mm/hr 0.00 in0.0 mm
08:22 AM 62.8°F17.1°C 40.0°F4.4°C 43% 3.8 mph NW6.1 kmh NW 9.1 mph14.6 kmh 29.94 in1013.9 mb 0.00 in0.0 mm 0.00 in/hr0.0 mm/hr 0.00 in0.0 mm
08:21 AM 62.6°F17.0°C 40.4°F4.7°C 44% 3.2 mph NW5.1 kmh NW 9.1 mph14.6 kmh 29.94 in1013.9 mb 0.00 in0.0 mm 0.00 in/hr0.0 mm/hr 0.00 in0.0 mm
08:19 AM 62.6°F17.0°C 40.4°F4.7°C 44% 5.4 mph W8.7 kmh W 10.5 mph16.9 kmh 29.94 in1013.9 mb 0.00 in0.0 mm 0.00 in/hr0.0 mm/hr 0.00 in0.0 mm
08:18 AM 62.6°F17.0°C 40.4°F4.7°C 44% 3.2 mph SSW5.1 kmh SSW 10.5 mph16.9 kmh 29.94 in1013.9 mb 0.00 in0.0 mm 0.00 in/hr0.0 mm/hr 0.00 in0.0 mm
08:17 AM 62.6°F17.0°C 40.4°F4.7°C 44% 9.1 mph N14.6 kmh N 10.5 mph16.9 kmh 29.94 in1013.9 mb 0.00 in0.0 mm 0.00 in/hr0.0 mm/hr 0.00 in0.0 mm
08:15 AM 62.4°F16.9°C 40.8°F4.9°C 45% 6.4 mph NNW10.3 kmh NNW 10.5 mph16.9 kmh 29.94 in1013.9 mb 0.00 in0.0 mm 0.00 in/hr0.0 mm/hr 0.00 in0.0 mm
08:14 AM 62.4°F16.9°C 40.2°F4.6°C 44% 5.9 mph NW9.5 kmh NW 10.5 mph16.9 kmh 29.94 in1013.9 mb 0.00 in0.0 mm 0.00 in/hr0.0 mm/hr 0.00 in0.0 mm
08:13 AM 62.2°F16.8°C 40.7°F4.8°C 45% 6.4 mph WNW10.3 kmh WNW 10.5 mph16.9 kmh 29.94 in1013.9 mb 0.00 in0.0 mm 0.00 in/hr0.0 mm/hr 0.00 in0.0 mm
08:11 AM 62.2°F16.8°C 41.8°F5.4°C 47% 6.4 mph NNW10.3 kmh NNW 10.5 mph16.9 kmh 29.94 in1013.9 mb 0.00 in0.0 mm 0.00 in/hr0.0 mm/hr 0.00 in0.0 mm
08:10 AM 62.2°F16.8°C 41.8°F5.4°C 47% 7.0 mph WSW11.3 kmh WSW 10.5 mph16.9 kmh 29.94 in1013.9 mb 0.00 in0.0 mm 0.00 in/hr0.0 mm/hr 0.00 in0.0 mm
08:08 AM 62.2°F16.8°C 41.8°F5.4°C 47% 7.0 mph W11.3 kmh W 12.1 mph19.5 kmh 29.94 in1013.9 mb 0.00 in0.0 mm 0.00 in/hr0.0 mm/hr 0.00 in0.0 mm
08:07 AM 62.2°F16.8°C 41.8°F5.4°C 47% 5.9 mph WSW9.5 kmh WSW 12.1 mph19.5 kmh 29.91 in1012.9 mb 0.00 in0.0 mm 0.00 in/hr0.0 mm/hr 0.00 in0.0 mm
08:06 AM 62.1°F16.7°C 41.1°F5.1°C 46% 7.5 mph WNW12.1 kmh WNW 12.1 mph19.5 kmh 29.91 in1012.9 mb 0.00 in0.0 mm 0.00 in/hr0.0 mm/hr 0.00 in0.0 mm
08:04 AM 62.1°F16.7°C 41.1°F5.1°C 46% 7.0 mph SW11.3 kmh SW 12.1 mph19.5 kmh 29.91 in1012.9 mb 0.00 in0.0 mm 0.00 in/hr0.0 mm/hr 0.00 in0.0 mm
08:03 AM 62.1°F16.7°C 41.6°F5.3°C 47% 9.7 mph W15.6 kmh W 12.1 mph19.5 kmh 29.91 in1012.9 mb 0.00 in0.0 mm 0.00 in/hr0.0 mm/hr 0.00 in0.0 mm
08:01 AM 62.1°F16.7°C 41.6°F5.3°C 47% 7.5 mph SW12.1 kmh SW 7.5 mph12.1 kmh 29.91 in1012.9 mb 0.00 in0.0 mm 0.00 in/hr0.0 mm/hr 0.00 in0.0 mm
08:00 AM 61.9°F16.6°C 41.5°F5.3°C 47% 3.8 mph WSW6.1 kmh WSW 7.5 mph12.1 kmh 29.91 in1012.9 mb 0.00 in0.0 mm 0.00 in/hr0.0 mm/hr 0.00 in0.0 mm
07:59 AM 61.9°F16.6°C 41.5°F5.3°C 47% 3.2 mph WNW5.1 kmh WNW 7.5 mph12.1 kmh 29.91 in1012.9 mb 0.00 in0.0 mm 0.00 in/hr0.0 mm/hr 0.00 in0.0 mm
07:57 AM 61.9°F16.6°C 41.5°F5.3°C 47% 4.8 mph W7.7 kmh W 7.5 mph12.1 kmh 29.91 in1012.9 mb 0.00 in0.0 mm 0.00 in/hr0.0 mm/hr 0.00 in0.0 mm
07:56 AM 61.7°F16.5°C 41.3°F5.2°C 47% 4.3 mph W6.9 kmh W 8.1 mph13.0 kmh 29.91 in1012.9 mb 0.00 in0.0 mm 0.00 in/hr0.0 mm/hr 0.00 in0.0 mm
07:54 AM 61.7°F16.5°C 41.3°F5.2°C 47% 4.3 mph SW6.9 kmh SW 8.1 mph13.0 kmh 29.91 in1012.9 mb 0.00 in0.0 mm 0.00 in/hr0.0 mm/hr 0.00 in0.0 mm
07:53 AM 61.5°F16.4°C 41.1°F5.1°C 47% 7.0 mph W11.3 kmh W 8.1 mph13.0 kmh 29.91 in1012.9 mb 0.00 in0.0 mm 0.00 in/hr0.0 mm/hr 0.00 in0.0 mm
07:52 AM 61.5°F16.4°C 41.7°F5.4°C 48% 5.9 mph NW9.5 kmh NW 8.1 mph13.0 kmh 29.91 in1012.9 mb 0.00 in0.0 mm 0.00 in/hr0.0 mm/hr 0.00 in0.0 mm
07:50 AM 61.3°F16.3°C 41.5°F5.3°C 48% 3.8 mph WSW6.1 kmh WSW 8.1 mph13.0 kmh 29.91 in1012.9 mb 0.00 in0.0 mm 0.00 in/hr0.0 mm/hr 0.00 in0.0 mm
07:49 AM 61.3°F16.3°C 41.5°F5.3°C 48% 7.5 mph WNW12.1 kmh WNW 7.5 mph12.1 kmh 29.91 in1012.9 mb 0.00 in0.0 mm 0.00 in/hr0.0 mm/hr 0.00 in0.0 mm
07:47 AM 61.3°F16.3°C 41.5°F5.3°C 48% 4.8 mph W7.7 kmh W 7.0 mph11.3 kmh 29.91 in1012.9 mb 0.00 in0.0 mm 0.00 in/hr0.0 mm/hr 0.00 in0.0 mm
07:46 AM 61.3°F16.3°C 41.5°F5.3°C 48% 5.9 mph WNW9.5 kmh WNW 7.0 mph11.3 kmh 29.91 in1012.9 mb 0.00 in0.0 mm 0.00 in/hr0.0 mm/hr 0.00 in0.0 mm
07:44 AM 61.2°F16.2°C 41.3°F5.2°C 48% 4.3 mph WNW6.9 kmh WNW 7.0 mph11.3 kmh 29.91 in1012.9 mb 0.00 in0.0 mm 0.00 in/hr0.0 mm/hr 0.00 in0.0 mm
07:43 AM 61.2°F16.2°C 41.3°F5.2°C 48% 4.8 mph WNW7.7 kmh WNW 7.0 mph11.3 kmh 29.91 in1012.9 mb 0.00 in0.0 mm 0.00 in/hr0.0 mm/hr 0.00 in0.0 mm
07:42 AM 61.0°F16.1°C 41.2°F5.1°C 48% 3.8 mph W6.1 kmh W 7.0 mph11.3 kmh 29.91 in1012.9 mb 0.00 in0.0 mm 0.00 in/hr0.0 mm/hr 0.00 in0.0 mm
07:41 AM 61.0°F16.1°C 41.2°F5.1°C 48% 4.3 mph WSW6.9 kmh WSW 7.0 mph11.3 kmh 29.91 in1012.9 mb 0.00 in0.0 mm 0.00 in/hr0.0 mm/hr 0.00 in0.0 mm
07:40 AM 61.0°F16.1°C 41.2°F5.1°C 48% 3.8 mph W6.1 kmh W 7.0 mph11.3 kmh 29.91 in1012.9 mb 0.00 in0.0 mm 0.00 in/hr0.0 mm/hr 0.00 in0.0 mm
07:39 AM 61.0°F16.1°C 41.2°F5.1°C 48% 4.3 mph W6.9 kmh W 7.0 mph11.3 kmh 29.91 in1012.9 mb 0.00 in0.0 mm 0.00 in/hr0.0 mm/hr 0.00 in0.0 mm
07:37 AM 61.0°F16.1°C 41.2°F5.1°C 48% 4.3 mph SW6.9 kmh SW 7.0 mph11.3 kmh 29.91 in1012.9 mb 0.00 in0.0 mm 0.00 in/hr0.0 mm/hr 0.00 in0.0 mm
07:36 AM 61.0°F16.1°C 41.2°F5.1°C 48% 4.3 mph SW6.9 kmh SW 7.0 mph11.3 kmh 29.91 in1012.9 mb 0.00 in0.0 mm 0.00 in/hr0.0 mm/hr 0.00 in0.0 mm
07:35 AM 61.0°F16.1°C 41.2°F5.1°C 48% 5.9 mph WSW9.5 kmh WSW 7.0 mph11.3 kmh 29.91 in1012.9 mb 0.00 in0.0 mm 0.00 in/hr0.0 mm/hr 0.00 in0.0 mm
07:33 AM 61.0°F16.1°C 41.2°F5.1°C 48% Calm Calm -- 29.91 in1012.9 mb 0.00 in0.0 mm 0.00 in/hr0.0 mm/hr 0.00 in0.0 mm
07:32 AM 61.0°F16.1°C 41.2°F5.1°C 48% Calm Calm -- 29.91 in1012.9 mb 0.00 in0.0 mm 0.00 in/hr0.0 mm/hr 0.00 in0.0 mm
07:30 AM 61.0°F16.1°C 41.2°F5.1°C 48% Calm Calm -- 29.91 in1012.9 mb 0.00 in0.0 mm 0.00 in/hr0.0 mm/hr 0.00 in0.0 mm
07:29 AM 61.2°F16.2°C 41.3°F5.2°C 48% Calm Calm 3.8 mph6.1 kmh 29.91 in1012.9 mb 0.00 in0.0 mm 0.00 in/hr0.0 mm/hr 0.00 in0.0 mm
07:28 AM 61.2°F16.2°C 41.3°F5.2°C 48% Calm Calm 5.9 mph9.5 kmh 29.91 in1012.9 mb 0.00 in0.0 mm 0.00 in/hr0.0 mm/hr 0.00 in0.0 mm
07:26 AM 61.3°F16.3°C 41.5°F5.3°C 48% Calm Calm 5.9 mph9.5 kmh 29.91 in1012.9 mb 0.00 in0.0 mm 0.00 in/hr0.0 mm/hr 0.00 in0.0 mm
07:25 AM 61.3°F16.3°C 41.5°F5.3°C 48% Calm Calm 5.9 mph9.5 kmh 29.91 in1012.9 mb 0.00 in0.0 mm 0.00 in/hr0.0 mm/hr 0.00 in0.0 mm
07:23 AM 61.3°F16.3°C 41.5°F5.3°C 48% Calm Calm 5.9 mph9.5 kmh 29.91 in1012.9 mb 0.00 in0.0 mm 0.00 in/hr0.0 mm/hr 0.00 in0.0 mm
07:22 AM 61.3°F16.3°C 41.5°F5.3°C 48% 3.8 mph WSW6.1 kmh WSW 5.9 mph9.5 kmh 29.91 in1012.9 mb 0.00 in0.0 mm 0.00 in/hr0.0 mm/hr 0.00 in0.0 mm
07:21 AM 61.2°F16.2°C 41.3°F5.2°C 48% 4.3 mph WNW6.9 kmh WNW 6.4 mph10.3 kmh 29.91 in1012.9 mb 0.00 in0.0 mm 0.00 in/hr0.0 mm/hr 0.00 in0.0 mm
07:20 AM 61.2°F16.2°C 41.3°F5.2°C 48% 3.2 mph NW5.1 kmh NW 6.4 mph10.3 kmh 29.91 in1012.9 mb 0.00 in0.0 mm 0.00 in/hr0.0 mm/hr 0.00 in0.0 mm
07:18 AM 61.0°F16.1°C 41.7°F5.4°C 49% 3.2 mph NW5.1 kmh NW 6.4 mph10.3 kmh 29.91 in1012.9 mb 0.00 in0.0 mm 0.00 in/hr0.0 mm/hr 0.00 in0.0 mm
07:17 AM 61.0°F16.1°C 41.7°F5.4°C 49% 3.8 mph WNW6.1 kmh WNW 6.4 mph10.3 kmh 29.91 in1012.9 mb 0.00 in0.0 mm 0.00 in/hr0.0 mm/hr 0.00 in0.0 mm
07:16 AM 60.8°F16.0°C 41.5°F5.3°C 49% 3.2 mph W5.1 kmh W 6.4 mph10.3 kmh 29.91 in1012.9 mb 0.00 in0.0 mm 0.00 in/hr0.0 mm/hr 0.00 in0.0 mm
07:15 AM 60.8°F16.0°C 41.5°F5.3°C 49% 3.2 mph NW5.1 kmh NW 5.9 mph9.5 kmh 29.91 in1012.9 mb 0.00 in0.0 mm 0.00 in/hr0.0 mm/hr 0.00 in0.0 mm
07:14 AM 60.8°F16.0°C 41.5°F5.3°C 49% 4.8 mph NW7.7 kmh NW 5.9 mph9.5 kmh 29.91 in1012.9 mb 0.00 in0.0 mm 0.00 in/hr0.0 mm/hr 0.00 in0.0 mm
07:13 AM 60.6°F15.9°C 41.9°F5.5°C 50% 3.8 mph W6.1 kmh W 5.9 mph9.5 kmh 29.91 in1012.9 mb 0.00 in0.0 mm 0.00 in/hr0.0 mm/hr 0.00 in0.0 mm
07:12 AM 60.6°F15.9°C 41.9°F5.5°C 50% 4.3 mph WNW6.9 kmh WNW 4.8 mph7.7 kmh 29.91 in1012.9 mb 0.00 in0.0 mm 0.00 in/hr0.0 mm/hr 0.00 in0.0 mm
07:11 AM 60.6°F15.9°C 41.9°F5.5°C 50% 3.8 mph W6.1 kmh W 4.8 mph7.7 kmh 29.91 in1012.9 mb 0.00 in0.0 mm 0.00 in/hr0.0 mm/hr 0.00 in0.0 mm
07:10 AM 60.6°F15.9°C 41.9°F5.5°C 50% Calm Calm 4.3 mph6.9 kmh 29.91 in1012.9 mb 0.00 in0.0 mm 0.00 in/hr0.0 mm/hr 0.00 in0.0 mm
07:08 AM 60.6°F15.9°C 41.9°F5.5°C 50% Calm Calm 4.3 mph6.9 kmh 29.91 in1012.9 mb 0.00 in0.0 mm 0.00 in/hr0.0 mm/hr 0.00 in0.0 mm
07:07 AM 60.6°F15.9°C 41.9°F5.5°C 50% 2.7 mph W4.3 kmh W 4.8 mph7.7 kmh 29.91 in1012.9 mb 0.00 in0.0 mm 0.00 in/hr0.0 mm/hr 0.00 in0.0 mm
07:05 AM 60.6°F15.9°C 41.9°F5.5°C 50% Calm Calm 4.8 mph7.7 kmh 29.88 in1011.9 mb 0.00 in0.0 mm 0.00 in/hr0.0 mm/hr 0.00 in0.0 mm
07:04 AM 60.6°F15.9°C 41.9°F5.5°C 50% Calm Calm 6.4 mph10.3 kmh 29.88 in1011.9 mb 0.00 in0.0 mm 0.00 in/hr0.0 mm/hr 0.00 in0.0 mm
07:02 AM 60.6°F15.9°C 41.9°F5.5°C 50% Calm Calm 6.4 mph10.3 kmh 29.88 in1011.9 mb 0.00 in0.0 mm 0.00 in/hr0.0 mm/hr 0.00 in0.0 mm
07:00 AM 60.6°F15.9°C 41.9°F5.5°C 50% 4.3 mph WSW6.9 kmh WSW 6.4 mph10.3 kmh 29.88 in1011.9 mb 0.00 in0.0 mm 0.00 in/hr0.0 mm/hr 0.00 in0.0 mm
06:59 AM 60.6°F15.9°C 41.9°F5.5°C 50% 2.7 mph WNW4.3 kmh WNW 6.4 mph10.3 kmh 29.88 in1011.9 mb 0.00 in0.0 mm 0.00 in/hr0.0 mm/hr 0.00 in0.0 mm
06:57 AM 60.6°F15.9°C 41.9°F5.5°C 50% 3.8 mph W6.1 kmh W 4.8 mph7.7 kmh 29.88 in1011.9 mb 0.00 in0.0 mm 0.00 in/hr0.0 mm/hr 0.00 in0.0 mm
06:56 AM 60.6°F15.9°C 41.9°F5.5°C 50% 3.2 mph NW5.1 kmh NW 4.8 mph7.7 kmh 29.88 in1011.9 mb 0.00 in0.0 mm 0.00 in/hr0.0 mm/hr 0.00 in0.0 mm
06:55 AM 60.6°F15.9°C 41.9°F5.5°C 50% 3.2 mph WNW5.1 kmh WNW 4.8 mph7.7 kmh 29.88 in1011.9 mb 0.00 in0.0 mm 0.00 in/hr0.0 mm/hr 0.00 in0.0 mm
06:53 AM 60.6°F15.9°C 41.9°F5.5°C 50% 3.2 mph W5.1 kmh W 4.8 mph7.7 kmh 29.88 in1011.9 mb 0.00 in0.0 mm 0.00 in/hr0.0 mm/hr 0.00 in0.0 mm
06:52 AM 60.6°F15.9°C 41.9°F5.5°C 50% 4.3 mph WSW6.9 kmh WSW 4.3 mph6.9 kmh 29.88 in1011.9 mb 0.00 in0.0 mm 0.00 in/hr0.0 mm/hr 0.00 in0.0 mm
06:51 AM 60.6°F15.9°C 41.9°F5.5°C 50% Calm Calm 4.3 mph6.9 kmh 29.88 in1011.9 mb 0.00 in0.0 mm 0.00 in/hr0.0 mm/hr 0.00 in0.0 mm
06:50 AM 60.6°F15.9°C 41.9°F5.5°C 50% Calm Calm 4.3 mph6.9 kmh 29.88 in1011.9 mb 0.00 in0.0 mm 0.00 in/hr0.0 mm/hr 0.00 in0.0 mm
06:49 AM 60.8°F16.0°C 42.1°F5.6°C 50% Calm Calm 4.3 mph6.9 kmh 29.88 in1011.9 mb 0.00 in0.0 mm 0.00 in/hr0.0 mm/hr 0.00 in0.0 mm
06:48 AM 60.8°F16.0°C 42.1°F5.6°C 50% 3.2 mph W5.1 kmh W 4.3 mph6.9 kmh 29.88 in1011.9 mb 0.00 in0.0 mm 0.00 in/hr0.0 mm/hr 0.00 in0.0 mm
06:46 AM 60.8°F16.0°C 42.1°F5.6°C 50% Calm Calm 4.8 mph7.7 kmh 29.88 in1011.9 mb 0.00 in0.0 mm 0.00 in/hr0.0 mm/hr 0.00 in0.0 mm
06:44 AM 60.8°F16.0°C 42.1°F5.6°C 50% Calm Calm 4.8 mph7.7 kmh 29.88 in1011.9 mb 0.00 in0.0 mm 0.00 in/hr0.0 mm/hr 0.00 in0.0 mm
06:43 AM 60.8°F16.0°C 42.1°F5.6°C 50% Calm Calm 4.8 mph7.7 kmh 29.88 in1011.9 mb 0.00 in0.0 mm 0.00 in/hr0.0 mm/hr 0.00 in0.0 mm
06:41 AM 60.8°F16.0°C 42.1°F5.6°C 50% 3.2 mph WSW5.1 kmh WSW 4.8 mph7.7 kmh 29.88 in1011.9 mb 0.00 in0.0 mm 0.00 in/hr0.0 mm/hr 0.00 in0.0 mm
06:40 AM 61.0°F16.1°C 42.2°F5.7°C 50% 4.8 mph SW7.7 kmh SW 4.8 mph7.7 kmh 29.88 in1011.9 mb 0.00 in0.0 mm 0.00 in/hr0.0 mm/hr 0.00 in0.0 mm
06:39 AM 61.0°F16.1°C 41.7°F5.4°C 49% Calm Calm 3.8 mph6.1 kmh 29.88 in1011.9 mb 0.00 in0.0 mm 0.00 in/hr0.0 mm/hr 0.00 in0.0 mm
06:37 AM 61.0°F16.1°C 41.7°F5.4°C 49% Calm Calm 4.8 mph7.7 kmh 29.88 in1011.9 mb 0.00 in0.0 mm 0.00 in/hr0.0 mm/hr 0.00 in0.0 mm
06:36 AM 61.2°F16.2°C 41.9°F5.5°C 49% Calm Calm 4.8 mph7.7 kmh 29.88 in1011.9 mb 0.00 in0.0 mm 0.00 in/hr0.0 mm/hr 0.00 in0.0 mm
06:35 AM 61.2°F16.2°C 41.9°F5.5°C 49% Calm Calm 4.8 mph7.7 kmh 29.88 in1011.9 mb 0.00 in0.0 mm 0.00 in/hr0.0 mm/hr 0.00 in0.0 mm
06:33 AM 61.2°F16.2°C 41.9°F5.5°C 49% Calm Calm 4.8 mph7.7 kmh 29.88 in1011.9 mb 0.00 in0.0 mm 0.00 in/hr0.0 mm/hr 0.00 in0.0 mm
06:32 AM 61.3°F16.3°C 42.0°F5.6°C 49% 3.8 mph W6.1 kmh W 4.8 mph7.7 kmh 29.88 in1011.9 mb 0.00 in0.0 mm 0.00 in/hr0.0 mm/hr 0.00 in0.0 mm
06:30 AM 61.3°F16.3°C 42.0°F5.6°C 49% 3.8 mph WSW6.1 kmh WSW 4.3 mph6.9 kmh 29.88 in1011.9 mb 0.00 in0.0 mm 0.00 in/hr0.0 mm/hr 0.00 in0.0 mm
06:29 AM 61.3°F16.3°C 42.0°F5.6°C 49% 3.2 mph WSW5.1 kmh WSW 3.8 mph6.1 kmh 29.88 in1011.9 mb 0.00 in0.0 mm 0.00 in/hr0.0 mm/hr 0.00 in0.0 mm
06:28 AM 61.5°F16.4°C 42.2°F5.7°C 49% 3.8 mph WSW6.1 kmh WSW 3.8 mph6.1 kmh 29.88 in1011.9 mb 0.00 in0.0 mm 0.00 in/hr0.0 mm/hr 0.00 in0.0 mm
06:27 AM 61.5°F16.4°C 42.2°F5.7°C 49% Calm Calm 3.8 mph6.1 kmh 29.88 in1011.9 mb 0.00 in0.0 mm 0.00 in/hr0.0 mm/hr 0.00 in0.0 mm
06:25 AM 61.7°F16.5°C 42.4°F5.8°C 49% Calm Calm 3.8 mph6.1 kmh 29.88 in1011.9 mb 0.00 in0.0 mm 0.00 in/hr0.0 mm/hr 0.00 in0.0 mm
06:24 AM 61.7°F16.5°C 42.4°F5.8°C 49% Calm Calm 4.8 mph7.7 kmh 29.88 in1011.9 mb 0.00 in0.0 mm 0.00 in/hr0.0 mm/hr 0.00 in0.0 mm
06:22 AM 61.9°F16.6°C 42.5°F5.8°C 49% 3.8 mph SW6.1 kmh SW 4.8 mph7.7 kmh 29.85 in1010.8 mb 0.00 in0.0 mm 0.00 in/hr0.0 mm/hr 0.00 in0.0 mm
06:20 AM 61.9°F16.6°C 42.5°F5.8°C 49% 3.8 mph WSW6.1 kmh WSW 4.8 mph7.7 kmh 29.85 in1010.8 mb 0.00 in0.0 mm 0.00 in/hr0.0 mm/hr 0.00 in0.0 mm
06:19 AM 61.9°F16.6°C 42.5°F5.8°C 49% 3.8 mph WSW6.1 kmh WSW 6.4 mph10.3 kmh 29.85 in1010.8 mb 0.00 in0.0 mm 0.00 in/hr0.0 mm/hr 0.00 in0.0 mm
06:18 AM 61.9°F16.6°C 42.5°F5.8°C 49% 3.2 mph WSW5.1 kmh WSW 7.0 mph11.3 kmh 29.85 in1010.8 mb 0.00 in0.0 mm 0.00 in/hr0.0 mm/hr 0.00 in0.0 mm
06:17 AM 62.1°F16.7°C 42.7°F5.9°C 49% 4.3 mph WSW6.9 kmh WSW 7.0 mph11.3 kmh 29.85 in1010.8 mb 0.00 in0.0 mm 0.00 in/hr0.0 mm/hr 0.00 in0.0 mm
06:15 AM 62.2°F16.8°C 42.9°F6.1°C 49% 2.7 mph WNW4.3 kmh WNW 7.0 mph11.3 kmh 29.85 in1010.8 mb 0.00 in0.0 mm 0.00 in/hr0.0 mm/hr 0.00 in0.0 mm
06:13 AM 62.2°F16.8°C 42.9°F6.1°C 49% 3.8 mph WNW6.1 kmh WNW 7.5 mph12.1 kmh 29.85 in1010.8 mb 0.00 in0.0 mm 0.00 in/hr0.0 mm/hr 0.00 in0.0 mm
06:12 AM 62.2°F16.8°C 42.9°F6.1°C 49% 3.2 mph NW5.1 kmh NW 7.5 mph12.1 kmh 29.85 in1010.8 mb 0.00 in0.0 mm 0.00 in/hr0.0 mm/hr 0.00 in0.0 mm
06:11 AM 62.2°F16.8°C 42.9°F6.1°C 49% 3.8 mph W6.1 kmh W 7.5 mph12.1 kmh 29.85 in1010.8 mb 0.00 in0.0 mm 0.00 in/hr0.0 mm/hr 0.00 in0.0 mm
06:09 AM 62.2°F16.8°C 42.9°F6.1°C 49% Calm Calm 7.5 mph12.1 kmh 29.85 in1010.8 mb 0.00 in0.0 mm 0.00 in/hr0.0 mm/hr 0.00 in0.0 mm
06:08 AM 62.2°F16.8°C 42.9°F6.1°C 49% 2.7 mph W4.3 kmh W 9.1 mph14.6 kmh 29.85 in1010.8 mb 0.00 in0.0 mm 0.00 in/hr0.0 mm/hr 0.00 in0.0 mm
06:06 AM 62.1°F16.7°C 42.7°F5.9°C 49% 3.8 mph W6.1 kmh W 9.1 mph14.6 kmh 29.85 in1010.8 mb 0.00 in0.0 mm 0.00 in/hr0.0 mm/hr 0.00 in0.0 mm
06:05 AM 62.1°F16.7°C 43.2°F6.2°C 50% 3.2 mph WNW5.1 kmh WNW 9.1 mph14.6 kmh 29.85 in1010.8 mb 0.00 in0.0 mm 0.00 in/hr0.0 mm/hr 0.00 in0.0 mm
06:04 AM 61.9°F16.6°C 43.1°F6.2°C 50% 2.7 mph WNW4.3 kmh WNW 9.1 mph14.6 kmh 29.85 in1010.8 mb 0.00 in0.0 mm 0.00 in/hr0.0 mm/hr 0.00 in0.0 mm
06:02 AM 61.9°F16.6°C 43.1°F6.2°C 50% 4.8 mph WNW7.7 kmh WNW 9.1 mph14.6 kmh 29.85 in1010.8 mb 0.00 in0.0 mm 0.00 in/hr0.0 mm/hr 0.00 in0.0 mm
06:01 AM 61.9°F16.6°C 43.1°F6.2°C 50% 4.3 mph W6.9 kmh W 6.4 mph10.3 kmh 29.85 in1010.8 mb 0.00 in0.0 mm 0.00 in/hr0.0 mm/hr 0.00 in0.0 mm
06:00 AM 61.9°F16.6°C 43.1°F6.2°C 50% 3.2 mph W5.1 kmh W 6.4 mph10.3 kmh 29.85 in1010.8 mb 0.00 in0.0 mm 0.00 in/hr0.0 mm/hr 0.00 in0.0 mm
05:58 AM 61.9°F16.6°C 43.1°F6.2°C 50% 4.8 mph NW7.7 kmh NW 5.9 mph9.5 kmh 29.85 in1010.8 mb 0.00 in0.0 mm 0.00 in/hr0.0 mm/hr 0.00 in0.0 mm
05:57 AM 61.9°F16.6°C 43.1°F6.2°C 50% 3.2 mph WNW5.1 kmh WNW 5.9 mph9.5 kmh 29.85 in1010.8 mb 0.00 in0.0 mm 0.00 in/hr0.0 mm/hr 0.00 in0.0 mm
05:55 AM 61.9°F16.6°C 43.1°F6.2°C 50% 3.2 mph W5.1 kmh W 5.9 mph9.5 kmh 29.85 in1010.8 mb 0.00 in0.0 mm 0.00 in/hr0.0 mm/hr 0.00 in0.0 mm
05:54 AM 61.9°F16.6°C 43.1°F6.2°C 50% 3.8 mph SW6.1 kmh SW 5.9 mph9.5 kmh 29.85 in1010.8 mb 0.00 in0.0 mm 0.00 in/hr0.0 mm/hr 0.00 in0.0 mm
05:52 AM 61.9°F16.6°C 43.1°F6.2°C 50% 4.8 mph SW7.7 kmh SW 4.8 mph7.7 kmh 29.85 in1010.8 mb 0.00 in0.0 mm 0.00 in/hr0.0 mm/hr 0.00 in0.0 mm
05:51 AM 62.1°F16.7°C 43.2°F6.2°C 50% Calm Calm 6.4 mph10.3 kmh 29.85 in1010.8 mb 0.00 in0.0 mm 0.00 in/hr0.0 mm/hr 0.00 in0.0 mm
05:50 AM 62.1°F16.7°C 43.2°F6.2°C 50% 3.8 mph WSW6.1 kmh WSW 6.4 mph10.3 kmh 29.85 in1010.8 mb 0.00 in0.0 mm 0.00 in/hr0.0 mm/hr 0.00 in0.0 mm
05:48 AM 62.2°F16.8°C 43.4°F6.3°C 50% 3.2 mph SW5.1 kmh SW 6.4 mph10.3 kmh 29.85 in1010.8 mb 0.00 in0.0 mm 0.00 in/hr0.0 mm/hr 0.00 in0.0 mm
05:47 AM 62.2°F16.8°C 43.4°F6.3°C 50% 3.2 mph WSW5.1 kmh WSW 6.4 mph10.3 kmh 29.85 in1010.8 mb 0.00 in0.0 mm 0.00 in/hr0.0 mm/hr 0.00 in0.0 mm
05:46 AM 62.2°F16.8°C 43.4°F6.3°C 50% 3.2 mph W5.1 kmh W 6.4 mph10.3 kmh 29.85 in1010.8 mb 0.00 in0.0 mm 0.00 in/hr0.0 mm/hr 0.00 in0.0 mm
05:44 AM 62.4°F16.9°C 43.6°F6.4°C 50% 4.3 mph WNW6.9 kmh WNW 5.4 mph8.7 kmh 29.85 in1010.8 mb 0.00 in0.0 mm 0.00 in/hr0.0 mm/hr 0.00 in0.0 mm
05:43 AM 62.4°F16.9°C 43.6°F6.4°C 50% 3.2 mph NW5.1 kmh NW 5.4 mph8.7 kmh 29.85 in1010.8 mb 0.00 in0.0 mm 0.00 in/hr0.0 mm/hr 0.00 in0.0 mm
05:42 AM 62.4°F16.9°C 43.6°F6.4°C 50% 2.7 mph WSW4.3 kmh WSW 5.4 mph8.7 kmh 29.85 in1010.8 mb 0.00 in0.0 mm 0.00 in/hr0.0 mm/hr 0.00 in0.0 mm
05:40 AM 62.6°F17.0°C 43.2°F6.2°C 49% 4.3 mph WNW6.9 kmh WNW 5.4 mph8.7 kmh 29.85 in1010.8 mb 0.00 in0.0 mm 0.00 in/hr0.0 mm/hr 0.00 in0.0 mm
05:39 AM 62.6°F17.0°C 43.2°F6.2°C 49% 2.7 mph W4.3 kmh W 5.4 mph8.7 kmh 29.85 in1010.8 mb 0.00 in0.0 mm 0.00 in/hr0.0 mm/hr 0.00 in0.0 mm
05:37 AM 62.6°F17.0°C 43.2°F6.2°C 49% Calm Calm 7.5 mph12.1 kmh 29.85 in1010.8 mb 0.00 in0.0 mm 0.00 in/hr0.0 mm/hr 0.00 in0.0 mm
05:36 AM 62.4°F16.9°C 43.6°F6.4°C 50% 3.2 mph NW5.1 kmh NW 7.5 mph12.1 kmh 29.85 in1010.8 mb 0.00 in0.0 mm 0.00 in/hr0.0 mm/hr 0.00 in0.0 mm
05:34 AM 62.4°F16.9°C 43.6°F6.4°C 50% 3.8 mph WNW6.1 kmh WNW 7.5 mph12.1 kmh 29.85 in1010.8 mb 0.00 in0.0 mm 0.00 in/hr0.0 mm/hr 0.00 in0.0 mm
05:33 AM 62.2°F16.8°C 43.4°F6.3°C 50% 3.8 mph W6.1 kmh W 7.5 mph12.1 kmh 29.85 in1010.8 mb 0.00 in0.0 mm 0.00 in/hr0.0 mm/hr 0.00 in0.0 mm
05:32 AM 62.2°F16.8°C 43.4°F6.3°C 50% 4.8 mph W7.7 kmh W 7.5 mph12.1 kmh 29.85 in1010.8 mb 0.00 in0.0 mm 0.00 in/hr0.0 mm/hr 0.00 in0.0 mm
05:30 AM 62.2°F16.8°C 43.4°F6.3°C 50% 7.5 mph NNW12.1 kmh NNW 7.5 mph12.1 kmh 29.85 in1010.8 mb 0.00 in0.0 mm 0.00 in/hr0.0 mm/hr 0.00 in0.0 mm
05:29 AM 62.1°F16.7°C 43.2°F6.2°C 50% 3.8 mph NW6.1 kmh NW 7.5 mph12.1 kmh 29.85 in1010.8 mb 0.00 in0.0 mm 0.00 in/hr0.0 mm/hr 0.00 in0.0 mm
05:27 AM 61.9°F16.6°C 43.1°F6.2°C 50% 4.3 mph NNW6.9 kmh NNW 7.5 mph12.1 kmh 29.85 in1010.8 mb 0.00 in0.0 mm 0.00 in/hr0.0 mm/hr 0.00 in0.0 mm
05:26 AM 62.1°F16.7°C 43.2°F6.2°C 50% Calm Calm -- 29.85 in1010.8 mb 0.00 in0.0 mm 0.00 in/hr0.0 mm/hr 0.00 in0.0 mm
05:24 AM 62.1°F16.7°C 43.2°F6.2°C 50% Calm Calm -- 29.85 in1010.8 mb 0.00 in0.0 mm 0.00 in/hr0.0 mm/hr 0.00 in0.0 mm
05:23 AM 62.2°F16.8°C 43.4°F6.3°C 50% Calm Calm -- 29.85 in1010.8 mb 0.00 in0.0 mm 0.00 in/hr0.0 mm/hr 0.00 in0.0 mm
05:22 AM 62.2°F16.8°C 43.4°F6.3°C 50% Calm Calm -- 29.85 in1010.8 mb 0.00 in0.0 mm 0.00 in/hr0.0 mm/hr 0.00 in0.0 mm
05:21 AM 62.4°F16.9°C 43.6°F6.4°C 50% Calm Calm -- 29.82 in1009.8 mb 0.00 in0.0 mm 0.00 in/hr0.0 mm/hr 0.00 in0.0 mm
05:20 AM 62.4°F16.9°C 43.6°F6.4°C 50% Calm Calm -- 29.82 in1009.8 mb 0.00 in0.0 mm 0.00 in/hr0.0 mm/hr 0.00 in0.0 mm
05:19 AM 62.6°F17.0°C 43.2°F6.2°C 49% Calm Calm -- 29.82 in1009.8 mb 0.00 in0.0 mm 0.00 in/hr0.0 mm/hr 0.00 in0.0 mm
05:18 AM 62.6°F17.0°C 43.2°F6.2°C 49% Calm Calm -- 29.82 in1009.8 mb 0.00 in0.0 mm 0.00 in/hr0.0 mm/hr 0.00 in0.0 mm
05:16 AM 62.6°F17.0°C 43.2°F6.2°C 49% Calm Calm -- 29.82 in1009.8 mb 0.00 in0.0 mm 0.00 in/hr0.0 mm/hr 0.00 in0.0 mm
05:15 AM 62.8°F17.1°C 43.4°F6.3°C 49% Calm Calm 4.3 mph6.9 kmh 29.82 in1009.8 mb 0.00 in0.0 mm 0.00 in/hr0.0 mm/hr 0.00 in0.0 mm
05:13 AM 63.0°F17.2°C 43.5°F6.4°C 49% Calm Calm 4.3 mph6.9 kmh 29.82 in1009.8 mb 0.00 in0.0 mm 0.00 in/hr0.0 mm/hr 0.00 in0.0 mm
05:12 AM 63.0°F17.2°C 43.5°F6.4°C 49% Calm Calm 4.8 mph7.7 kmh 29.82 in1009.8 mb 0.00 in0.0 mm 0.00 in/hr0.0 mm/hr 0.00 in0.0 mm
05:10 AM 63.1°F17.3°C 43.7°F6.5°C 49% Calm Calm 4.8 mph7.7 kmh 29.82 in1009.8 mb 0.00 in0.0 mm 0.00 in/hr0.0 mm/hr 0.00 in0.0 mm
05:09 AM 63.1°F17.3°C 43.7°F6.5°C 49% Calm Calm 4.8 mph7.7 kmh 29.82 in1009.8 mb 0.00 in0.0 mm 0.00 in/hr0.0 mm/hr 0.00 in0.0 mm
05:08 AM 63.1°F17.3°C 43.7°F6.5°C 49% 4.3 mph WNW6.9 kmh WNW 7.0 mph11.3 kmh 29.82 in1009.8 mb 0.00 in0.0 mm 0.00 in/hr0.0 mm/hr 0.00 in0.0 mm
05:06 AM 63.1°F17.3°C 43.7°F6.5°C 49% 2.7 mph W4.3 kmh W 7.0 mph11.3 kmh 29.82 in1009.8 mb 0.00 in0.0 mm 0.00 in/hr0.0 mm/hr 0.00 in0.0 mm
05:05 AM 63.1°F17.3°C 43.7°F6.5°C 49% Calm Calm 7.0 mph11.3 kmh 29.82 in1009.8 mb 0.00 in0.0 mm 0.00 in/hr0.0 mm/hr 0.00 in0.0 mm
05:03 AM 63.1°F17.3°C 43.7°F6.5°C 49% Calm Calm 7.0 mph11.3 kmh 29.82 in1009.8 mb 0.00 in0.0 mm 0.00 in/hr0.0 mm/hr 0.00 in0.0 mm
05:02 AM 63.1°F17.3°C 43.7°F6.5°C 49% 3.2 mph NW5.1 kmh NW 7.0 mph11.3 kmh 29.82 in1009.8 mb 0.00 in0.0 mm 0.00 in/hr0.0 mm/hr 0.00 in0.0 mm
05:01 AM 63.1°F17.3°C 43.7°F6.5°C 49% 3.8 mph NW6.1 kmh NW 4.8 mph7.7 kmh 29.82 in1009.8 mb 0.00 in0.0 mm 0.00 in/hr0.0 mm/hr 0.00 in0.0 mm
04:59 AM 63.1°F17.3°C 43.7°F6.5°C 49% 3.8 mph WSW6.1 kmh WSW 4.8 mph7.7 kmh 29.82 in1009.8 mb 0.00 in0.0 mm 0.00 in/hr0.0 mm/hr 0.00 in0.0 mm
04:58 AM 63.1°F17.3°C 43.7°F6.5°C 49% 3.2 mph W5.1 kmh W 4.8 mph7.7 kmh 29.82 in1009.8 mb 0.00 in0.0 mm 0.00 in/hr0.0 mm/hr 0.00 in0.0 mm
04:56 AM 63.3°F17.4°C 43.9°F6.6°C 49% 3.8 mph W6.1 kmh W 4.8 mph7.7 kmh 29.82 in1009.8 mb 0.00 in0.0 mm 0.00 in/hr0.0 mm/hr 0.00 in0.0 mm
04:55 AM 63.3°F17.4°C 43.9°F6.6°C 49% 3.8 mph WNW6.1 kmh WNW 4.8 mph7.7 kmh 29.82 in1009.8 mb 0.00 in0.0 mm 0.00 in/hr0.0 mm/hr 0.00 in0.0 mm
04:54 AM 63.5°F17.5°C 44.0°F6.7°C 49% 3.2 mph W5.1 kmh W 4.3 mph6.9 kmh 29.82 in1009.8 mb 0.00 in0.0 mm 0.00 in/hr0.0 mm/hr 0.00 in0.0 mm
04:52 AM 63.5°F17.5°C 44.0°F6.7°C 49% Calm Calm 4.8 mph7.7 kmh 29.82 in1009.8 mb 0.00 in0.0 mm 0.00 in/hr0.0 mm/hr 0.00 in0.0 mm
04:51 AM 63.7°F17.6°C 43.6°F6.4°C 48% 3.2 mph WSW5.1 kmh WSW 5.9 mph9.5 kmh 29.82 in1009.8 mb 0.00 in0.0 mm 0.00 in/hr0.0 mm/hr 0.00 in0.0 mm
04:49 AM 63.9°F17.7°C 43.8°F6.6°C 48% 2.7 mph WNW4.3 kmh WNW 5.9 mph9.5 kmh 29.82 in1009.8 mb 0.00 in0.0 mm 0.00 in/hr0.0 mm/hr 0.00 in0.0 mm
04:47 AM 64.0°F17.8°C 44.0°F6.7°C 48% Calm Calm 5.9 mph9.5 kmh 29.82 in1009.8 mb 0.00 in0.0 mm 0.00 in/hr0.0 mm/hr 0.00 in0.0 mm
04:45 AM 64.0°F17.8°C 44.0°F6.7°C 48% 3.2 mph W5.1 kmh W 5.9 mph9.5 kmh 29.82 in1009.8 mb 0.00 in0.0 mm 0.00 in/hr0.0 mm/hr 0.00 in0.0 mm
04:44 AM 64.2°F17.9°C 44.1°F6.7°C 48% 5.9 mph WSW9.5 kmh WSW 5.9 mph9.5 kmh 29.82 in1009.8 mb 0.00 in0.0 mm 0.00 in/hr0.0 mm/hr 0.00 in0.0 mm
04:42 AM 64.4°F18.0°C 43.8°F6.6°C 47% Calm Calm 5.9 mph9.5 kmh 29.82 in1009.8 mb 0.00 in0.0 mm 0.00 in/hr0.0 mm/hr 0.00 in0.0 mm
04:40 AM 64.6°F18.1°C 43.9°F6.6°C 47% Calm Calm 7.0 mph11.3 kmh 29.82 in1009.8 mb 0.00 in0.0 mm 0.00 in/hr0.0 mm/hr 0.00 in0.0 mm
04:38 AM 64.6°F18.1°C 43.9°F6.6°C 47% Calm Calm 7.0 mph11.3 kmh 29.82 in1009.8 mb 0.00 in0.0 mm 0.00 in/hr0.0 mm/hr 0.00 in0.0 mm
04:37 AM 64.8°F18.2°C 44.1°F6.7°C 47% 5.4 mph WSW8.7 kmh WSW 7.0 mph11.3 kmh 29.82 in1009.8 mb 0.00 in0.0 mm 0.00 in/hr0.0 mm/hr 0.00 in0.0 mm
04:36 AM 64.8°F18.2°C 44.1°F6.7°C 47% 3.8 mph WNW6.1 kmh WNW 7.0 mph11.3 kmh 29.82 in1009.8 mb 0.00 in0.0 mm 0.00 in/hr0.0 mm/hr 0.00 in0.0 mm
04:34 AM 64.9°F18.3°C 44.3°F6.8°C 47% 3.8 mph WNW6.1 kmh WNW 7.0 mph11.3 kmh 29.82 in1009.8 mb 0.00 in0.0 mm 0.00 in/hr0.0 mm/hr 0.00 in0.0 mm
04:33 AM 64.9°F18.3°C 44.3°F6.8°C 47% 3.2 mph W5.1 kmh W 4.8 mph7.7 kmh 29.82 in1009.8 mb 0.00 in0.0 mm 0.00 in/hr0.0 mm/hr 0.00 in0.0 mm
04:31 AM 65.1°F18.4°C 44.4°F6.9°C 47% 2.7 mph NW4.3 kmh NW 5.4 mph8.7 kmh 29.82 in1009.8 mb 0.00 in0.0 mm 0.00 in/hr0.0 mm/hr 0.00 in0.0 mm
04:30 AM 65.1°F18.4°C 44.4°F6.9°C 47% 3.2 mph WSW5.1 kmh WSW 5.4 mph8.7 kmh 29.82 in1009.8 mb 0.00 in0.0 mm 0.00 in/hr0.0 mm/hr 0.00 in0.0 mm
04:28 AM 65.3°F18.5°C 44.6°F7.0°C 47% 3.2 mph W5.1 kmh W 6.4 mph10.3 kmh 29.82 in1009.8 mb 0.00 in0.0 mm 0.00 in/hr0.0 mm/hr 0.00 in0.0 mm
04:26 AM 65.5°F18.6°C 44.7°F7.1°C 47% 3.2 mph W5.1 kmh W 6.4 mph10.3 kmh 29.82 in1009.8 mb 0.00 in0.0 mm 0.00 in/hr0.0 mm/hr 0.00 in0.0 mm
04:24 AM 65.5°F18.6°C 44.7°F7.1°C 47% Calm Calm 6.4 mph10.3 kmh 29.82 in1009.8 mb 0.00 in0.0 mm 0.00 in/hr0.0 mm/hr 0.00 in0.0 mm
04:23 AM 65.5°F18.6°C 44.7°F7.1°C 47% 3.2 mph NW5.1 kmh NW 6.4 mph10.3 kmh 29.82 in1009.8 mb 0.00 in0.0 mm 0.00 in/hr0.0 mm/hr 0.00 in0.0 mm
04:21 AM 65.5°F18.6°C 44.7°F7.1°C 47% 3.2 mph W5.1 kmh W 4.8 mph7.7 kmh 29.82 in1009.8 mb 0.00 in0.0 mm 0.00 in/hr0.0 mm/hr 0.00 in0.0 mm
04:20 AM 65.7°F18.7°C 44.9°F7.2°C 47% 2.7 mph W4.3 kmh W 4.8 mph7.7 kmh 29.82 in1009.8 mb 0.00 in0.0 mm 0.00 in/hr0.0 mm/hr 0.00 in0.0 mm
04:19 AM 65.7°F18.7°C 44.9°F7.2°C 47% 4.8 mph WNW7.7 kmh WNW 4.8 mph7.7 kmh 29.82 in1009.8 mb 0.00 in0.0 mm 0.00 in/hr0.0 mm/hr 0.00 in0.0 mm
04:18 AM 65.7°F18.7°C 44.9°F7.2°C 47% 3.8 mph WNW6.1 kmh WNW 4.8 mph7.7 kmh 29.82 in1009.8 mb 0.00 in0.0 mm 0.00 in/hr0.0 mm/hr 0.00 in0.0 mm
04:16 AM 65.7°F18.7°C 44.9°F7.2°C 47% 3.8 mph NW6.1 kmh NW 4.8 mph7.7 kmh 29.82 in1009.8 mb 0.00 in0.0 mm 0.00 in/hr0.0 mm/hr 0.00 in0.0 mm
04:15 AM 65.8°F18.8°C 45.1°F7.3°C 47% Calm Calm 7.0 mph11.3 kmh 29.82 in1009.8 mb 0.00 in0.0 mm 0.00 in/hr0.0 mm/hr 0.00 in0.0 mm
04:13 AM 65.8°F18.8°C 45.1°F7.3°C 47% 3.8 mph N6.1 kmh N 7.0 mph11.3 kmh 29.82 in1009.8 mb 0.00 in0.0 mm 0.00 in/hr0.0 mm/hr 0.00 in0.0 mm
04:12 AM 65.8°F18.8°C 45.1°F7.3°C 47% 4.3 mph N6.9 kmh N 7.0 mph11.3 kmh 29.82 in1009.8 mb 0.00 in0.0 mm 0.00 in/hr0.0 mm/hr 0.00 in0.0 mm
04:11 AM 65.8°F18.8°C 45.1°F7.3°C 47% 4.3 mph W6.9 kmh W 7.0 mph11.3 kmh 29.82 in1009.8 mb 0.00 in0.0 mm 0.00 in/hr0.0 mm/hr 0.00 in0.0 mm
04:09 AM 66.0°F18.9°C 45.2°F7.3°C 47% 4.3 mph NW6.9 kmh NW 7.0 mph11.3 kmh 29.82 in1009.8 mb 0.00 in0.0 mm 0.00 in/hr0.0 mm/hr 0.00 in0.0 mm
04:07 AM 66.0°F18.9°C 45.2°F7.3°C 47% 3.2 mph W5.1 kmh W 5.9 mph9.5 kmh 29.79 in1008.8 mb 0.00 in0.0 mm 0.00 in/hr0.0 mm/hr 0.00 in0.0 mm
04:05 AM 66.0°F18.9°C 45.2°F7.3°C 47% Calm Calm 5.9 mph9.5 kmh 29.79 in1008.8 mb 0.00 in0.0 mm 0.00 in/hr0.0 mm/hr 0.00 in0.0 mm
04:03 AM 66.0°F18.9°C 45.2°F7.3°C 47% 4.8 mph W7.7 kmh W 5.9 mph9.5 kmh 29.79 in1008.8 mb 0.00 in0.0 mm 0.00 in/hr0.0 mm/hr 0.00 in0.0 mm
04:02 AM 66.0°F18.9°C 45.2°F7.3°C 47% 3.2 mph W5.1 kmh W 7.0 mph11.3 kmh 29.79 in1008.8 mb 0.00 in0.0 mm 0.00 in/hr0.0 mm/hr 0.00 in0.0 mm
04:01 AM 66.0°F18.9°C 45.8°F7.7°C 48% 5.4 mph NNW8.7 kmh NNW 7.0 mph11.3 kmh 29.79 in1008.8 mb 0.00 in0.0 mm 0.00 in/hr0.0 mm/hr 0.00 in0.0 mm
03:59 AM 66.0°F18.9°C 45.8°F7.7°C 48% 3.2 mph NNW5.1 kmh NNW 9.1 mph14.6 kmh 29.79 in1008.8 mb 0.00 in0.0 mm 0.00 in/hr0.0 mm/hr 0.00 in0.0 mm
03:58 AM 66.0°F18.9°C 45.8°F7.7°C 48% 4.3 mph WNW6.9 kmh WNW 9.1 mph14.6 kmh 29.79 in1008.8 mb 0.00 in0.0 mm 0.00 in/hr0.0 mm/hr 0.00 in0.0 mm
03:56 AM 66.0°F18.9°C 46.3°F7.9°C 49% 3.2 mph W5.1 kmh W 9.1 mph14.6 kmh 29.79 in1008.8 mb 0.00 in0.0 mm 0.00 in/hr0.0 mm/hr 0.00 in0.0 mm
03:55 AM 66.0°F18.9°C 46.9°F8.3°C 50% 4.8 mph N7.7 kmh N 9.1 mph14.6 kmh 29.79 in1008.8 mb 0.00 in0.0 mm 0.00 in/hr0.0 mm/hr 0.00 in0.0 mm
03:53 AM 66.0°F18.9°C 46.9°F8.3°C 50% 3.2 mph WNW5.1 kmh WNW 9.1 mph14.6 kmh 29.79 in1008.8 mb 0.00 in0.0 mm 0.00 in/hr0.0 mm/hr 0.00 in0.0 mm
03:52 AM 66.0°F18.9°C 48.4°F9.1°C 53% 3.8 mph NW6.1 kmh NW 6.4 mph10.3 kmh 29.79 in1008.8 mb 0.00 in0.0 mm 0.00 in/hr0.0 mm/hr 0.00 in0.0 mm
03:51 AM 66.0°F18.9°C 48.4°F9.1°C 53% 3.2 mph NNW5.1 kmh NNW 6.4 mph10.3 kmh 29.79 in1008.8 mb 0.00 in0.0 mm 0.00 in/hr0.0 mm/hr 0.00 in0.0 mm
03:49 AM 66.0°F18.9°C 48.9°F9.4°C 54% 3.8 mph NW6.1 kmh NW 5.9 mph9.5 kmh 29.79 in1008.8 mb 0.00 in0.0 mm 0.00 in/hr0.0 mm/hr 0.00 in0.0 mm
03:48 AM 65.8°F18.8°C 49.2°F9.6°C 55% 3.8 mph NNW6.1 kmh NNW 6.4 mph10.3 kmh 29.79 in1008.8 mb 0.00 in0.0 mm 0.00 in/hr0.0 mm/hr 0.00 in0.0 mm
03:47 AM 65.8°F18.8°C 49.7°F9.8°C 56% 4.8 mph W7.7 kmh W 6.4 mph10.3 kmh 29.79 in1008.8 mb 0.00 in0.0 mm 0.00 in/hr0.0 mm/hr 0.00 in0.0 mm
03:46 AM 65.8°F18.8°C 50.2°F10.1°C 57% 3.8 mph W6.1 kmh W 6.4 mph10.3 kmh 29.79 in1008.8 mb 0.00 in0.0 mm 0.00 in/hr0.0 mm/hr 0.00 in0.0 mm
03:45 AM 65.8°F18.8°C 50.7°F10.4°C 58% 4.3 mph W6.9 kmh W 6.4 mph10.3 kmh 29.79 in1008.8 mb 0.00 in0.0 mm 0.00 in/hr0.0 mm/hr 0.00 in0.0 mm
03:44 AM 65.8°F18.8°C 50.7°F10.4°C 58% 3.2 mph WNW5.1 kmh WNW 6.4 mph10.3 kmh 29.79 in1008.8 mb 0.00 in0.0 mm 0.00 in/hr0.0 mm/hr 0.00 in0.0 mm
03:42 AM 65.8°F18.8°C 51.1°F10.6°C 59% 3.8 mph NW6.1 kmh NW 6.4 mph10.3 kmh 29.79 in1008.8 mb 0.00 in0.0 mm 0.00 in/hr0.0 mm/hr 0.00 in0.0 mm
03:41 AM 65.8°F18.8°C 52.0°F11.1°C 61% 3.2 mph W5.1 kmh W 5.9 mph9.5 kmh 29.79 in1008.8 mb 0.00 in0.0 mm 0.00 in/hr0.0 mm/hr 0.00 in0.0 mm
03:40 AM 65.8°F18.8°C 52.0°F11.1°C 61% 3.8 mph NW6.1 kmh NW 3.8 mph6.1 kmh 29.79 in1008.8 mb 0.00 in0.0 mm 0.00 in/hr0.0 mm/hr 0.00 in0.0 mm
03:38 AM 65.8°F18.8°C 52.5°F11.4°C 62% 3.8 mph WSW6.1 kmh WSW 3.8 mph6.1 kmh 29.79 in1008.8 mb 0.00 in0.0 mm 0.00 in/hr0.0 mm/hr 0.00 in0.0 mm
03:37 AM 66.0°F18.9°C 52.6°F11.4°C 62% Calm Calm -- 29.79 in1008.8 mb 0.00 in0.0 mm 0.00 in/hr0.0 mm/hr 0.00 in0.0 mm
03:35 AM 66.0°F18.9°C 52.6°F11.4°C 62% Calm Calm -- 29.79 in1008.8 mb 0.00 in0.0 mm 0.00 in/hr0.0 mm/hr 0.00 in0.0 mm
03:34 AM 66.0°F18.9°C 53.1°F11.7°C 63% Calm Calm -- 29.79 in1008.8 mb 0.00 in0.0 mm 0.00 in/hr0.0 mm/hr 0.00 in0.0 mm
03:33 AM 66.0°F18.9°C 53.1°F11.7°C 63% Calm Calm -- 29.79 in1008.8 mb 0.00 in0.0 mm 0.00 in/hr0.0 mm/hr 0.00 in0.0 mm
03:31 AM 66.0°F18.9°C 53.5°F11.9°C 64% Calm Calm 4.3 mph6.9 kmh 29.79 in1008.8 mb 0.00 in0.0 mm 0.00 in/hr0.0 mm/hr 0.00 in0.0 mm
03:30 AM 66.0°F18.9°C 53.9°F12.2°C 65% Calm Calm 4.8 mph7.7 kmh 29.79 in1008.8 mb 0.00 in0.0 mm 0.00 in/hr0.0 mm/hr 0.00 in0.0 mm
03:28 AM 66.0°F18.9°C 53.9°F12.2°C 65% Calm Calm 4.8 mph7.7 kmh 29.79 in1008.8 mb 0.00 in0.0 mm 0.00 in/hr0.0 mm/hr 0.00 in0.0 mm
03:27 AM 65.8°F18.8°C 54.2°F12.3°C 66% Calm Calm 4.8 mph7.7 kmh 29.79 in1008.8 mb 0.00 in0.0 mm 0.00 in/hr0.0 mm/hr 0.00 in0.0 mm
03:25 AM 65.8°F18.8°C 54.6°F12.6°C 67% Calm Calm 5.9 mph9.5 kmh 29.79 in1008.8 mb 0.00 in0.0 mm 0.00 in/hr0.0 mm/hr 0.00 in0.0 mm
03:24 AM 65.8°F18.8°C 55.0°F12.8°C 68% 4.3 mph WSW6.9 kmh WSW 5.9 mph9.5 kmh 29.79 in1008.8 mb 0.00 in0.0 mm 0.00 in/hr0.0 mm/hr 0.00 in0.0 mm
03:23 AM 65.8°F18.8°C 55.4°F13.0°C 69% 4.8 mph NW7.7 kmh NW 5.9 mph9.5 kmh 29.79 in1008.8 mb 0.00 in0.0 mm 0.00 in/hr0.0 mm/hr 0.00 in0.0 mm
03:22 AM 65.8°F18.8°C 55.4°F13.0°C 69% 4.3 mph W6.9 kmh W 5.9 mph9.5 kmh 29.79 in1008.8 mb 0.00 in0.0 mm 0.00 in/hr0.0 mm/hr 0.00 in0.0 mm
03:21 AM 65.8°F18.8°C 55.8°F13.2°C 70% 3.2 mph WNW5.1 kmh WNW 5.9 mph9.5 kmh 29.79 in1008.8 mb 0.00 in0.0 mm 0.00 in/hr0.0 mm/hr 0.00 in0.0 mm
03:20 AM 65.8°F18.8°C 55.8°F13.2°C 70% Calm Calm 5.9 mph9.5 kmh 29.79 in1008.8 mb 0.00 in0.0 mm 0.00 in/hr0.0 mm/hr 0.00 in0.0 mm
03:18 AM 65.7°F18.7°C 55.6°F13.1°C 70% 4.8 mph W7.7 kmh W 5.4 mph8.7 kmh 29.79 in1008.8 mb 0.00 in0.0 mm 0.00 in/hr0.0 mm/hr 0.00 in0.0 mm
03:17 AM 65.7°F18.7°C 55.6°F13.1°C 70% Calm Calm 5.4 mph8.7 kmh 29.79 in1008.8 mb 0.00 in0.0 mm 0.00 in/hr0.0 mm/hr 0.00 in0.0 mm
03:16 AM 65.7°F18.7°C 55.6°F13.1°C 70% 4.3 mph W6.9 kmh W 4.8 mph7.7 kmh 29.79 in1008.8 mb 0.00 in0.0 mm 0.00 in/hr0.0 mm/hr 0.00 in0.0 mm
03:14 AM 65.7°F18.7°C 55.2°F12.9°C 69% 2.7 mph NNW4.3 kmh NNW 4.8 mph7.7 kmh 29.79 in1008.8 mb 0.00 in0.0 mm 0.00 in/hr0.0 mm/hr 0.00 in0.0 mm
03:13 AM 65.7°F18.7°C 54.8°F12.7°C 68% 2.7 mph NNW4.3 kmh NNW 4.8 mph7.7 kmh 29.79 in1008.8 mb 0.00 in0.0 mm 0.00 in/hr0.0 mm/hr 0.00 in0.0 mm
03:11 AM 65.7°F18.7°C 54.4°F12.4°C 67% 3.2 mph WNW5.1 kmh WNW 4.3 mph6.9 kmh 29.79 in1008.8 mb 0.00 in0.0 mm 0.00 in/hr0.0 mm/hr 0.00 in0.0 mm
03:10 AM 65.7°F18.7°C 54.4°F12.4°C 67% Calm Calm 3.2 mph5.1 kmh 29.79 in1008.8 mb 0.00 in0.0 mm 0.00 in/hr0.0 mm/hr 0.00 in0.0 mm
03:09 AM 65.7°F18.7°C 54.0°F12.2°C 66% Calm Calm 3.2 mph5.1 kmh 29.79 in1008.8 mb 0.00 in0.0 mm 0.00 in/hr0.0 mm/hr 0.00 in0.0 mm
03:07 AM 65.7°F18.7°C 54.0°F12.2°C 66% Calm Calm 3.2 mph5.1 kmh 29.79 in1008.8 mb 0.00 in0.0 mm 0.00 in/hr0.0 mm/hr 0.00 in0.0 mm
03:06 AM 65.7°F18.7°C 53.6°F12.0°C 65% Calm Calm 3.2 mph5.1 kmh 29.79 in1008.8 mb 0.00 in0.0 mm 0.00 in/hr0.0 mm/hr 0.00 in0.0 mm
03:04 AM 65.7°F18.7°C 53.6°F12.0°C 65% Calm Calm 3.2 mph5.1 kmh 29.79 in1008.8 mb 0.00 in0.0 mm 0.00 in/hr0.0 mm/hr 0.00 in0.0 mm
03:03 AM 65.7°F18.7°C 53.6°F12.0°C 65% 3.2 mph W5.1 kmh W 3.2 mph5.1 kmh 29.79 in1008.8 mb 0.00 in0.0 mm 0.00 in/hr0.0 mm/hr 0.00 in0.0 mm
03:02 AM 65.8°F18.8°C 53.8°F12.1°C 65% Calm Calm -- 29.79 in1008.8 mb 0.00 in0.0 mm 0.00 in/hr0.0 mm/hr 0.00 in0.0 mm
03:01 AM 65.8°F18.8°C 53.3°F11.8°C 64% Calm Calm -- 29.79 in1008.8 mb 0.00 in0.0 mm 0.00 in/hr0.0 mm/hr 0.00 in0.0 mm
02:59 AM 65.8°F18.8°C 53.3°F11.8°C 64% Calm Calm -- 29.79 in1008.8 mb 0.00 in0.0 mm 0.00 in/hr0.0 mm/hr 0.00 in0.0 mm
02:57 AM 65.8°F18.8°C 53.3°F11.8°C 64% Calm Calm -- 29.79 in1008.8 mb 0.00 in0.0 mm 0.00 in/hr0.0 mm/hr 0.00 in0.0 mm
02:56 AM 65.8°F18.8°C 53.3°F11.8°C 64% Calm Calm -- 29.79 in1008.8 mb 0.00 in0.0 mm 0.00 in/hr0.0 mm/hr 0.00 in0.0 mm
02:55 AM 66.0°F18.9°C 53.1°F11.7°C 63% Calm Calm -- 29.79 in1008.8 mb 0.00 in0.0 mm 0.00 in/hr0.0 mm/hr 0.00 in0.0 mm
02:53 AM 66.0°F18.9°C 53.1°F11.7°C 63% Calm Calm -- 29.79 in1008.8 mb 0.00 in0.0 mm 0.00 in/hr0.0 mm/hr 0.00 in0.0 mm
02:52 AM 66.0°F18.9°C 53.1°F11.7°C 63% Calm Calm 3.2 mph5.1 kmh 29.79 in1008.8 mb 0.00 in0.0 mm 0.00 in/hr0.0 mm/hr 0.00 in0.0 mm
02:50 AM 66.2°F19.0°C 52.8°F11.6°C 62% Calm Calm 4.3 mph6.9 kmh 29.79 in1008.8 mb 0.00 in0.0 mm 0.00 in/hr0.0 mm/hr 0.00 in0.0 mm
02:49 AM 66.2°F19.0°C 52.8°F11.6°C 62% Calm Calm 4.3 mph6.9 kmh 29.79 in1008.8 mb 0.00 in0.0 mm 0.00 in/hr0.0 mm/hr 0.00 in0.0 mm
02:48 AM 66.2°F19.0°C 52.8°F11.6°C 62% Calm Calm 4.3 mph6.9 kmh 29.79 in1008.8 mb 0.00 in0.0 mm 0.00 in/hr0.0 mm/hr 0.00 in0.0 mm
02:46 AM 66.4°F19.1°C 53.0°F11.7°C 62% Calm Calm 4.3 mph6.9 kmh 29.79 in1008.8 mb 0.00 in0.0 mm 0.00 in/hr0.0 mm/hr 0.00 in0.0 mm
02:45 AM 66.4°F19.1°C 52.5°F11.4°C 61% 2.7 mph W4.3 kmh W 4.3 mph6.9 kmh 29.79 in1008.8 mb 0.00 in0.0 mm 0.00 in/hr0.0 mm/hr 0.00 in0.0 mm
02:44 AM 66.4°F19.1°C 52.5°F11.4°C 61% 3.8 mph W6.1 kmh W 4.3 mph6.9 kmh 29.79 in1008.8 mb 0.00 in0.0 mm 0.00 in/hr0.0 mm/hr 0.00 in0.0 mm
02:43 AM 66.6°F19.2°C 52.7°F11.5°C 61% Calm Calm -- 29.79 in1008.8 mb 0.00 in0.0 mm 0.00 in/hr0.0 mm/hr 0.00 in0.0 mm
02:41 AM 66.6°F19.2°C 52.7°F11.5°C 61% Calm Calm -- 29.79 in1008.8 mb 0.00 in0.0 mm 0.00 in/hr0.0 mm/hr 0.00 in0.0 mm
02:39 AM 66.7°F19.3°C 52.9°F11.6°C 61% Calm Calm -- 29.79 in1008.8 mb 0.00 in0.0 mm 0.00 in/hr0.0 mm/hr 0.00 in0.0 mm
02:38 AM 66.9°F19.4°C 53.1°F11.7°C 61% Calm Calm -- 29.79 in1008.8 mb 0.00 in0.0 mm 0.00 in/hr0.0 mm/hr 0.00 in0.0 mm
02:37 AM 66.9°F19.4°C 53.1°F11.7°C 61% Calm Calm -- 29.79 in1008.8 mb 0.00 in0.0 mm 0.00 in/hr0.0 mm/hr 0.00 in0.0 mm
02:36 AM 67.1°F19.5°C 53.2°F11.8°C 61% Calm Calm -- 29.79 in1008.8 mb 0.00 in0.0 mm 0.00 in/hr0.0 mm/hr 0.00 in0.0 mm
02:34 AM 67.1°F19.5°C 53.2°F11.8°C 61% Calm Calm -- 29.79 in1008.8 mb 0.00 in0.0 mm 0.00 in/hr0.0 mm/hr 0.00 in0.0 mm
02:32 AM 67.3°F19.6°C 53.4°F11.9°C 61% Calm Calm 3.8 mph6.1 kmh 29.79 in1008.8 mb 0.00 in0.0 mm 0.00 in/hr0.0 mm/hr 0.00 in0.0 mm
02:31 AM 67.3°F19.6°C 52.9°F11.6°C 60% Calm Calm 3.8 mph6.1 kmh 29.79 in1008.8 mb 0.00 in0.0 mm 0.00 in/hr0.0 mm/hr 0.00 in0.0 mm
02:29 AM 67.5°F19.7°C 53.1°F11.7°C 60% Calm Calm 3.8 mph6.1 kmh 29.79 in1008.8 mb 0.00 in0.0 mm 0.00 in/hr0.0 mm/hr 0.00 in0.0 mm
02:27 AM 67.5°F19.7°C 53.1°F11.7°C 60% Calm Calm 3.8 mph6.1 kmh 29.79 in1008.8 mb 0.00 in0.0 mm 0.00 in/hr0.0 mm/hr 0.00 in0.0 mm
02:25 AM 67.5°F19.7°C 53.1°F11.7°C 60% 3.8 mph WNW6.1 kmh WNW 3.8 mph6.1 kmh 29.79 in1008.8 mb 0.00 in0.0 mm 0.00 in/hr0.0 mm/hr 0.00 in0.0 mm
02:24 AM 67.6°F19.8°C 53.3°F11.8°C 60% Calm Calm 4.3 mph6.9 kmh 29.79 in1008.8 mb 0.00 in0.0 mm 0.00 in/hr0.0 mm/hr 0.00 in0.0 mm
02:22 AM 67.6°F19.8°C 53.3°F11.8°C 60% Calm Calm 4.3 mph6.9 kmh 29.79 in1008.8 mb 0.00 in0.0 mm 0.00 in/hr0.0 mm/hr 0.00 in0.0 mm
02:21 AM 67.6°F19.8°C 53.3°F11.8°C 60% 2.7 mph NNW4.3 kmh NNW 4.3 mph6.9 kmh 29.79 in1008.8 mb 0.00 in0.0 mm 0.00 in/hr0.0 mm/hr 0.00 in0.0 mm
02:20 AM 67.6°F19.8°C 52.8°F11.6°C 59% Calm Calm 4.3 mph6.9 kmh 29.79 in1008.8 mb 0.00 in0.0 mm 0.00 in/hr0.0 mm/hr 0.00 in0.0 mm
02:18 AM 67.8°F19.9°C 53.0°F11.7°C 59% 2.7 mph W4.3 kmh W 4.3 mph6.9 kmh 29.79 in1008.8 mb 0.00 in0.0 mm 0.00 in/hr0.0 mm/hr 0.00 in0.0 mm
02:17 AM 67.8°F19.9°C 53.0°F11.7°C 59% 3.2 mph NNW5.1 kmh NNW 4.3 mph6.9 kmh 29.79 in1008.8 mb 0.00 in0.0 mm 0.00 in/hr0.0 mm/hr 0.00 in0.0 mm
02:16 AM 67.8°F19.9°C 53.0°F11.7°C 59% 2.7 mph W4.3 kmh W 4.3 mph6.9 kmh 29.79 in1008.8 mb 0.00 in0.0 mm 0.00 in/hr0.0 mm/hr 0.00 in0.0 mm
02:14 AM 67.8°F19.9°C 53.0°F11.7°C 59% 3.2 mph NNW5.1 kmh NNW 5.9 mph9.5 kmh 29.79 in1008.8 mb 0.00 in0.0 mm 0.00 in/hr0.0 mm/hr 0.00 in0.0 mm
02:13 AM 67.8°F19.9°C 53.0°F11.7°C 59% Calm Calm 5.9 mph9.5 kmh 29.79 in1008.8 mb 0.00 in0.0 mm 0.00 in/hr0.0 mm/hr 0.00 in0.0 mm
02:11 AM 68.0°F20.0°C 52.7°F11.5°C 58% 3.8 mph WNW6.1 kmh WNW 5.9 mph9.5 kmh 29.79 in1008.8 mb 0.00 in0.0 mm 0.00 in/hr0.0 mm/hr 0.00 in0.0 mm
02:10 AM 68.0°F20.0°C 52.7°F11.5°C 58% 3.2 mph W5.1 kmh W 5.9 mph9.5 kmh 29.79 in1008.8 mb 0.00 in0.0 mm 0.00 in/hr0.0 mm/hr 0.00 in0.0 mm
02:08 AM 68.0°F20.0°C 52.7°F11.5°C 58% 3.8 mph NNW6.1 kmh NNW 4.8 mph7.7 kmh 29.79 in1008.8 mb 0.00 in0.0 mm 0.00 in/hr0.0 mm/hr 0.00 in0.0 mm
02:06 AM 68.2°F20.1°C 52.9°F11.6°C 58% 4.8 mph NW7.7 kmh NW 7.0 mph11.3 kmh 29.76 in1007.8 mb 0.00 in0.0 mm 0.00 in/hr0.0 mm/hr 0.00 in0.0 mm
02:05 AM 68.2°F20.1°C 52.9°F11.6°C 58% 3.2 mph NW5.1 kmh NW 7.0 mph11.3 kmh 29.76 in1007.8 mb 0.00 in0.0 mm 0.00 in/hr0.0 mm/hr 0.00 in0.0 mm
02:03 AM 68.2°F20.1°C 52.4°F11.3°C 57% 4.8 mph NW7.7 kmh NW 7.5 mph12.1 kmh 29.76 in1007.8 mb 0.00 in0.0 mm 0.00 in/hr0.0 mm/hr 0.00 in0.0 mm
02:01 AM 68.2°F20.1°C 52.4°F11.3°C 57% 4.8 mph W7.7 kmh W 7.5 mph12.1 kmh 29.76 in1007.8 mb 0.00 in0.0 mm 0.00 in/hr0.0 mm/hr 0.00 in0.0 mm
02:00 AM 68.4°F20.2°C 52.6°F11.4°C 57% 3.2 mph WNW5.1 kmh WNW 7.5 mph12.1 kmh 29.76 in1007.8 mb 0.00 in0.0 mm 0.00 in/hr0.0 mm/hr 0.00 in0.0 mm
01:59 AM 68.4°F20.2°C 52.6°F11.4°C 57% 3.2 mph NW5.1 kmh NW 7.5 mph12.1 kmh 29.76 in1007.8 mb 0.00 in0.0 mm 0.00 in/hr0.0 mm/hr 0.00 in0.0 mm
01:58 AM 68.4°F20.2°C 52.1°F11.2°C 56% 3.8 mph W6.1 kmh W 7.5 mph12.1 kmh 29.76 in1007.8 mb 0.00 in0.0 mm 0.00 in/hr0.0 mm/hr 0.00 in0.0 mm
01:56 AM 68.5°F20.3°C 52.2°F11.2°C 56% 3.8 mph W6.1 kmh W 6.4 mph10.3 kmh 29.76 in1007.8 mb 0.00 in0.0 mm 0.00 in/hr0.0 mm/hr 0.00 in0.0 mm
01:54 AM 68.5°F20.3°C 52.2°F11.2°C 56% 2.7 mph NW4.3 kmh NW 7.5 mph12.1 kmh 29.76 in1007.8 mb 0.00 in0.0 mm 0.00 in/hr0.0 mm/hr 0.00 in0.0 mm
01:53 AM 68.5°F20.3°C 52.2°F11.2°C 56% Calm Calm 7.5 mph12.1 kmh 29.76 in1007.8 mb 0.00 in0.0 mm 0.00 in/hr0.0 mm/hr 0.00 in0.0 mm
01:52 AM 68.7°F20.4°C 51.9°F11.1°C 55% Calm Calm 7.5 mph12.1 kmh 29.76 in1007.8 mb 0.00 in0.0 mm 0.00 in/hr0.0 mm/hr 0.00 in0.0 mm
01:50 AM 68.7°F20.4°C 51.9°F11.1°C 55% 4.8 mph NW7.7 kmh NW 7.5 mph12.1 kmh 29.76 in1007.8 mb 0.00 in0.0 mm 0.00 in/hr0.0 mm/hr 0.00 in0.0 mm
01:49 AM 68.7°F20.4°C 51.9°F11.1°C 55% 6.4 mph NW10.3 kmh NW 9.9 mph15.9 kmh 29.76 in1007.8 mb 0.00 in0.0 mm 0.00 in/hr0.0 mm/hr 0.00 in0.0 mm
01:47 AM 68.9°F20.5°C 52.1°F11.2°C 55% 5.9 mph SSW9.5 kmh SSW 9.9 mph15.9 kmh 29.76 in1007.8 mb 0.00 in0.0 mm 0.00 in/hr0.0 mm/hr 0.00 in0.0 mm
01:46 AM 68.9°F20.5°C 51.6°F10.9°C 54% 4.8 mph W7.7 kmh W 9.9 mph15.9 kmh 29.76 in1007.8 mb 0.00 in0.0 mm 0.00 in/hr0.0 mm/hr 0.00 in0.0 mm
01:45 AM 68.9°F20.5°C 51.6°F10.9°C 54% 6.4 mph NW10.3 kmh NW 9.9 mph15.9 kmh 29.76 in1007.8 mb 0.00 in0.0 mm 0.00 in/hr0.0 mm/hr 0.00 in0.0 mm
01:43 AM 68.9°F20.5°C 51.1°F10.6°C 53% 7.5 mph W12.1 kmh W 9.9 mph15.9 kmh 29.76 in1007.8 mb 0.00 in0.0 mm 0.00 in/hr0.0 mm/hr 0.00 in0.0 mm
01:42 AM 68.9°F20.5°C 51.1°F10.6°C 53% 3.8 mph NW6.1 kmh NW 7.5 mph12.1 kmh 29.76 in1007.8 mb 0.00 in0.0 mm 0.00 in/hr0.0 mm/hr 0.00 in0.0 mm
01:41 AM 68.9°F20.5°C 51.1°F10.6°C 53% 3.2 mph SW5.1 kmh SW 7.5 mph12.1 kmh 29.76 in1007.8 mb 0.00 in0.0 mm 0.00 in/hr0.0 mm/hr 0.00 in0.0 mm
01:39 AM 69.1°F20.6°C 50.7°F10.4°C 52% 7.5 mph WSW12.1 kmh WSW 7.5 mph12.1 kmh 29.76 in1007.8 mb 0.00 in0.0 mm 0.00 in/hr0.0 mm/hr 0.00 in0.0 mm
01:38 AM 69.1°F20.6°C 50.2°F10.1°C 51% 5.9 mph WNW9.5 kmh WNW 7.5 mph12.1 kmh 29.76 in1007.8 mb 0.00 in0.0 mm 0.00 in/hr0.0 mm/hr 0.00 in0.0 mm
01:36 AM 69.1°F20.6°C 50.2°F10.1°C 51% 2.7 mph W4.3 kmh W 7.0 mph11.3 kmh 29.76 in1007.8 mb 0.00 in0.0 mm 0.00 in/hr0.0 mm/hr 0.00 in0.0 mm
01:35 AM 69.1°F20.6°C 49.7°F9.8°C 50% 3.2 mph N5.1 kmh N 7.0 mph11.3 kmh 29.76 in1007.8 mb 0.00 in0.0 mm 0.00 in/hr0.0 mm/hr 0.00 in0.0 mm
01:33 AM 69.1°F20.6°C 49.7°F9.8°C 50% 4.3 mph WNW6.9 kmh WNW 7.0 mph11.3 kmh 29.76 in1007.8 mb 0.00 in0.0 mm 0.00 in/hr0.0 mm/hr 0.00 in0.0 mm
01:32 AM 69.1°F20.6°C 49.7°F9.8°C 50% 3.8 mph SW6.1 kmh SW 7.0 mph11.3 kmh 29.76 in1007.8 mb 0.00 in0.0 mm 0.00 in/hr0.0 mm/hr 0.00 in0.0 mm
01:31 AM 69.1°F20.6°C 49.1°F9.5°C 49% 3.8 mph W6.1 kmh W 7.0 mph11.3 kmh 29.76 in1007.8 mb 0.00 in0.0 mm 0.00 in/hr0.0 mm/hr 0.00 in0.0 mm
01:29 AM 69.1°F20.6°C 49.1°F9.5°C 49% 3.8 mph W6.1 kmh W 7.0 mph11.3 kmh 29.76 in1007.8 mb 0.00 in0.0 mm 0.00 in/hr0.0 mm/hr 0.00 in0.0 mm
01:28 AM 69.1°F20.6°C 49.1°F9.5°C 49% 3.2 mph NNW5.1 kmh NNW 7.0 mph11.3 kmh 29.76 in1007.8 mb 0.00 in0.0 mm 0.00 in/hr0.0 mm/hr 0.00 in0.0 mm
01:27 AM 69.1°F20.6°C 49.1°F9.5°C 49% 3.8 mph NNW6.1 kmh NNW 7.0 mph11.3 kmh 29.76 in1007.8 mb 0.00 in0.0 mm 0.00 in/hr0.0 mm/hr 0.00 in0.0 mm
01:25 AM 69.1°F20.6°C 49.1°F9.5°C 49% 5.9 mph WNW9.5 kmh WNW 7.0 mph11.3 kmh 29.76 in1007.8 mb 0.00 in0.0 mm 0.00 in/hr0.0 mm/hr 0.00 in0.0 mm
01:24 AM 69.1°F20.6°C 49.1°F9.5°C 49% 4.8 mph NW7.7 kmh NW 9.9 mph15.9 kmh 29.76 in1007.8 mb 0.00 in0.0 mm 0.00 in/hr0.0 mm/hr 0.00 in0.0 mm
01:23 AM 69.1°F20.6°C 49.1°F9.5°C 49% 5.9 mph W9.5 kmh W 9.9 mph15.9 kmh 29.76 in1007.8 mb 0.00 in0.0 mm 0.00 in/hr0.0 mm/hr 0.00 in0.0 mm
01:21 AM 69.1°F20.6°C 48.6°F9.2°C 48% 4.3 mph WNW6.9 kmh WNW 9.9 mph15.9 kmh 29.73 in1006.8 mb 0.00 in0.0 mm 0.00 in/hr0.0 mm/hr 0.00 in0.0 mm
01:20 AM 69.1°F20.6°C 48.6°F9.2°C 48% 4.3 mph NNW6.9 kmh NNW 9.9 mph15.9 kmh 29.73 in1006.8 mb 0.00 in0.0 mm 0.00 in/hr0.0 mm/hr 0.00 in0.0 mm
01:18 AM 68.9°F20.5°C 48.4°F9.1°C 48% 3.8 mph WSW6.1 kmh WSW 9.9 mph15.9 kmh 29.73 in1006.8 mb 0.00 in0.0 mm 0.00 in/hr0.0 mm/hr 0.00 in0.0 mm
01:17 AM 68.9°F20.5°C 48.4°F9.1°C 48% 4.3 mph WNW6.9 kmh WNW 7.5 mph12.1 kmh 29.73 in1006.8 mb 0.00 in0.0 mm 0.00 in/hr0.0 mm/hr 0.00 in0.0 mm
01:15 AM 68.9°F20.5°C 48.4°F9.1°C 48% 4.8 mph NW7.7 kmh NW 9.9 mph15.9 kmh 29.73 in1006.8 mb 0.00 in0.0 mm 0.00 in/hr0.0 mm/hr 0.00 in0.0 mm
01:14 AM 68.9°F20.5°C 48.4°F9.1°C 48% 7.0 mph WNW11.3 kmh WNW 9.9 mph15.9 kmh 29.73 in1006.8 mb 0.00 in0.0 mm 0.00 in/hr0.0 mm/hr 0.00 in0.0 mm
01:12 AM 68.9°F20.5°C 48.4°F9.1°C 48% 7.5 mph W12.1 kmh W 9.9 mph15.9 kmh 29.73 in1006.8 mb 0.00 in0.0 mm 0.00 in/hr0.0 mm/hr 0.00 in0.0 mm
01:11 AM 68.9°F20.5°C 48.4°F9.1°C 48% 4.3 mph WNW6.9 kmh WNW 9.9 mph15.9 kmh 29.73 in1006.8 mb 0.00 in0.0 mm 0.00 in/hr0.0 mm/hr 0.00 in0.0 mm
01:10 AM 68.9°F20.5°C 48.4°F9.1°C 48% 6.4 mph WSW10.3 kmh WSW 9.9 mph15.9 kmh 29.73 in1006.8 mb 0.00 in0.0 mm 0.00 in/hr0.0 mm/hr 0.00 in0.0 mm
01:08 AM 68.9°F20.5°C 49.0°F9.4°C 49% 5.9 mph NW9.5 kmh NW 9.1 mph14.6 kmh 29.73 in1006.8 mb 0.00 in0.0 mm 0.00 in/hr0.0 mm/hr 0.00 in0.0 mm
01:07 AM 68.9°F20.5°C 49.0°F9.4°C 49% 6.4 mph W10.3 kmh W 7.5 mph12.1 kmh 29.73 in1006.8 mb 0.00 in0.0 mm 0.00 in/hr0.0 mm/hr 0.00 in0.0 mm
01:06 AM 68.9°F20.5°C 49.0°F9.4°C 49% 3.8 mph W6.1 kmh W 7.0 mph11.3 kmh 29.73 in1006.8 mb 0.00 in0.0 mm 0.00 in/hr0.0 mm/hr 0.00 in0.0 mm
01:04 AM 68.9°F20.5°C 49.0°F9.4°C 49% 3.8 mph NW6.1 kmh NW 6.4 mph10.3 kmh 29.73 in1006.8 mb 0.00 in0.0 mm 0.00 in/hr0.0 mm/hr 0.00 in0.0 mm
01:03 AM 68.9°F20.5°C 49.0°F9.4°C 49% 3.2 mph NNW5.1 kmh NNW 6.4 mph10.3 kmh 29.73 in1006.8 mb 0.00 in0.0 mm 0.00 in/hr0.0 mm/hr 0.00 in0.0 mm
01:02 AM 68.9°F20.5°C 49.0°F9.4°C 49% 3.2 mph W5.1 kmh W 6.4 mph10.3 kmh 29.73 in1006.8 mb 0.00 in0.0 mm 0.00 in/hr0.0 mm/hr 0.00 in0.0 mm
01:01 AM 69.1°F20.6°C 49.1°F9.5°C 49% 2.7 mph SW4.3 kmh SW 6.4 mph10.3 kmh 29.73 in1006.8 mb 0.00 in0.0 mm 0.00 in/hr0.0 mm/hr 0.00 in0.0 mm
01:00 AM 69.1°F20.6°C 49.1°F9.5°C 49% 3.2 mph SW5.1 kmh SW 5.9 mph9.5 kmh 29.73 in1006.8 mb 0.00 in0.0 mm 0.00 in/hr0.0 mm/hr 0.00 in0.0 mm
12:58 AM 69.1°F20.6°C 49.1°F9.5°C 49% 2.7 mph W4.3 kmh W 4.8 mph7.7 kmh 29.73 in1006.8 mb 0.00 in0.0 mm 0.00 in/hr0.0 mm/hr 0.00 in0.0 mm
12:57 AM 69.1°F20.6°C 49.1°F9.5°C 49% 3.2 mph WNW5.1 kmh WNW 4.8 mph7.7 kmh 29.73 in1006.8 mb 0.00 in0.0 mm 0.00 in/hr0.0 mm/hr 0.00 in0.0 mm
12:56 AM 69.1°F20.6°C 48.6°F9.2°C 48% 3.2 mph NW5.1 kmh NW 4.8 mph7.7 kmh 29.73 in1006.8 mb 0.00 in0.0 mm 0.00 in/hr0.0 mm/hr 0.00 in0.0 mm
12:54 AM 69.3°F20.7°C 49.3°F9.6°C 49% 4.3 mph W6.9 kmh W 5.9 mph9.5 kmh 29.73 in1006.8 mb 0.00 in0.0 mm 0.00 in/hr0.0 mm/hr 0.00 in0.0 mm
12:53 AM 69.3°F20.7°C 49.3°F9.6°C 49% Calm Calm 5.9 mph9.5 kmh 29.73 in1006.8 mb 0.00 in0.0 mm 0.00 in/hr0.0 mm/hr 0.00 in0.0 mm
12:52 AM 69.3°F20.7°C 49.3°F9.6°C 49% 4.8 mph WSW7.7 kmh WSW 5.9 mph9.5 kmh 29.73 in1006.8 mb 0.00 in0.0 mm 0.00 in/hr0.0 mm/hr 0.00 in0.0 mm
12:50 AM 69.3°F20.7°C 49.3°F9.6°C 49% 4.3 mph W6.9 kmh W 5.9 mph9.5 kmh 29.73 in1006.8 mb 0.00 in0.0 mm 0.00 in/hr0.0 mm/hr 0.00 in0.0 mm
12:49 AM 69.3°F20.7°C 48.8°F9.3°C 48% 3.2 mph W5.1 kmh W 5.9 mph9.5 kmh 29.73 in1006.8 mb 0.00 in0.0 mm 0.00 in/hr0.0 mm/hr 0.00 in0.0 mm
12:47 AM 69.3°F20.7°C 49.3°F9.6°C 49% 4.8 mph W7.7 kmh W 6.4 mph10.3 kmh 29.73 in1006.8 mb 0.00 in0.0 mm 0.00 in/hr0.0 mm/hr 0.00 in0.0 mm
12:46 AM 69.4°F20.8°C 48.9°F9.4°C 48% 2.7 mph WNW4.3 kmh WNW 7.5 mph12.1 kmh 29.73 in1006.8 mb 0.00 in0.0 mm 0.00 in/hr0.0 mm/hr 0.00 in0.0 mm
12:44 AM 69.4°F20.8°C 48.9°F9.4°C 48% 3.2 mph WSW5.1 kmh WSW 7.5 mph12.1 kmh 29.73 in1006.8 mb 0.00 in0.0 mm 0.00 in/hr0.0 mm/hr 0.00 in0.0 mm
12:43 AM 69.4°F20.8°C 48.9°F9.4°C 48% 5.4 mph WSW8.7 kmh WSW 7.5 mph12.1 kmh 29.73 in1006.8 mb 0.00 in0.0 mm 0.00 in/hr0.0 mm/hr 0.00 in0.0 mm
12:42 AM 69.4°F20.8°C 48.9°F9.4°C 48% 3.2 mph WSW5.1 kmh WSW 7.5 mph12.1 kmh 29.73 in1006.8 mb 0.00 in0.0 mm 0.00 in/hr0.0 mm/hr 0.00 in0.0 mm
12:40 AM 69.4°F20.8°C 49.5°F9.7°C 49% 5.9 mph SW9.5 kmh SW 7.5 mph12.1 kmh 29.73 in1006.8 mb 0.00 in0.0 mm 0.00 in/hr0.0 mm/hr 0.00 in0.0 mm
12:39 AM 69.4°F20.8°C 49.5°F9.7°C 49% Calm Calm 4.8 mph7.7 kmh 29.73 in1006.8 mb 0.00 in0.0 mm 0.00 in/hr0.0 mm/hr 0.00 in0.0 mm
12:38 AM 69.6°F20.9°C 49.6°F9.8°C 49% Calm Calm 4.8 mph7.7 kmh 29.73 in1006.8 mb 0.00 in0.0 mm 0.00 in/hr0.0 mm/hr 0.00 in0.0 mm
12:36 AM 69.6°F20.9°C 49.6°F9.8°C 49% 3.2 mph WSW5.1 kmh WSW 5.9 mph9.5 kmh 29.73 in1006.8 mb 0.00 in0.0 mm 0.00 in/hr0.0 mm/hr 0.00 in0.0 mm
12:35 AM 69.6°F20.9°C 49.1°F9.5°C 48% 3.2 mph WSW5.1 kmh WSW 5.9 mph9.5 kmh 29.73 in1006.8 mb 0.00 in0.0 mm 0.00 in/hr0.0 mm/hr 0.00 in0.0 mm
12:33 AM 69.6°F20.9°C 49.1°F9.5°C 48% Calm Calm 6.4 mph10.3 kmh 29.73 in1006.8 mb 0.00 in0.0 mm 0.00 in/hr0.0 mm/hr 0.00 in0.0 mm
12:32 AM 69.8°F21.0°C 49.3°F9.6°C 48% 2.7 mph W4.3 kmh W 6.4 mph10.3 kmh 29.73 in1006.8 mb 0.00 in0.0 mm 0.00 in/hr0.0 mm/hr 0.00 in0.0 mm
12:30 AM 69.8°F21.0°C 49.3°F9.6°C 48% 5.9 mph SW9.5 kmh SW 6.4 mph10.3 kmh 29.73 in1006.8 mb 0.00 in0.0 mm 0.00 in/hr0.0 mm/hr 0.00 in0.0 mm
12:28 AM 69.8°F21.0°C 49.3°F9.6°C 48% 4.3 mph WSW6.9 kmh WSW 6.4 mph10.3 kmh 29.73 in1006.8 mb 0.00 in0.0 mm 0.00 in/hr0.0 mm/hr 0.00 in0.0 mm
12:27 AM 69.8°F21.0°C 49.3°F9.6°C 48% Calm Calm 5.4 mph8.7 kmh 29.73 in1006.8 mb 0.00 in0.0 mm 0.00 in/hr0.0 mm/hr 0.00 in0.0 mm
12:25 AM 69.8°F21.0°C 49.8°F9.9°C 49% 2.7 mph WSW4.3 kmh WSW 5.4 mph8.7 kmh 29.73 in1006.8 mb 0.00 in0.0 mm 0.00 in/hr0.0 mm/hr 0.00 in0.0 mm
12:24 AM 69.8°F21.0°C 49.8°F9.9°C 49% 4.3 mph SW6.9 kmh SW 4.8 mph7.7 kmh 29.73 in1006.8 mb 0.00 in0.0 mm 0.00 in/hr0.0 mm/hr 0.00 in0.0 mm
12:23 AM 69.8°F21.0°C 49.8°F9.9°C 49% 4.8 mph W7.7 kmh W 4.8 mph7.7 kmh 29.73 in1006.8 mb 0.00 in0.0 mm 0.00 in/hr0.0 mm/hr 0.00 in0.0 mm
12:21 AM 70.0°F21.1°C 50.0°F10.0°C 49% 4.8 mph SW7.7 kmh SW 4.8 mph7.7 kmh 29.73 in1006.8 mb 0.00 in0.0 mm 0.00 in/hr0.0 mm/hr 0.00 in0.0 mm
12:19 AM 70.0°F21.1°C 50.0°F10.0°C 49% Calm Calm 4.8 mph7.7 kmh 29.73 in1006.8 mb 0.00 in0.0 mm 0.00 in/hr0.0 mm/hr 0.00 in0.0 mm
12:18 AM 70.0°F21.1°C 50.5°F10.3°C 50% Calm Calm 4.8 mph7.7 kmh 29.73 in1006.8 mb 0.00 in0.0 mm 0.00 in/hr0.0 mm/hr 0.00 in0.0 mm
12:17 AM 70.0°F21.1°C 50.5°F10.3°C 50% Calm Calm 4.8 mph7.7 kmh 29.73 in1006.8 mb 0.00 in0.0 mm 0.00 in/hr0.0 mm/hr 0.00 in0.0 mm
12:16 AM 70.0°F21.1°C 50.5°F10.3°C 50% 3.8 mph WSW6.1 kmh WSW 4.8 mph7.7 kmh 29.73 in1006.8 mb 0.00 in0.0 mm 0.00 in/hr0.0 mm/hr 0.00 in0.0 mm
12:14 AM 70.2°F21.2°C 50.7°F10.4°C 50% 3.2 mph SW5.1 kmh SW 4.8 mph7.7 kmh 29.73 in1006.8 mb 0.00 in0.0 mm 0.00 in/hr0.0 mm/hr 0.00 in0.0 mm
12:13 AM 70.2°F21.2°C 51.2°F10.7°C 51% 3.2 mph WSW5.1 kmh WSW 4.8 mph7.7 kmh 29.73 in1006.8 mb 0.00 in0.0 mm 0.00 in/hr0.0 mm/hr 0.00 in0.0 mm
12:12 AM 70.2°F21.2°C 51.2°F10.7°C 51% 3.2 mph WSW5.1 kmh WSW 4.8 mph7.7 kmh 29.73 in1006.8 mb 0.00 in0.0 mm 0.00 in/hr0.0 mm/hr 0.00 in0.0 mm
12:11 AM 70.2°F21.2°C 51.2°F10.7°C 51% Calm Calm 4.8 mph7.7 kmh 29.73 in1006.8 mb 0.00 in0.0 mm 0.00 in/hr0.0 mm/hr 0.00 in0.0 mm
12:09 AM 70.2°F21.2°C 51.2°F10.7°C 51% 3.2 mph WNW5.1 kmh WNW 4.8 mph7.7 kmh 29.73 in1006.8 mb 0.00 in0.0 mm 0.00 in/hr0.0 mm/hr 0.00 in0.0 mm
12:07 AM 70.2°F21.2°C 52.8°F11.6°C 54% 3.2 mph WNW5.1 kmh WNW 4.8 mph7.7 kmh 29.73 in1006.8 mb 0.00 in0.0 mm 0.00 in/hr0.0 mm/hr 0.00 in0.0 mm
12:05 AM 70.2°F21.2°C 52.8°F11.6°C 54% 3.2 mph NW5.1 kmh NW 4.8 mph7.7 kmh 29.73 in1006.8 mb 0.00 in0.0 mm 0.00 in/hr0.0 mm/hr 0.00 in0.0 mm
12:04 AM 70.2°F21.2°C 53.3°F11.8°C 55% 3.8 mph NW6.1 kmh NW 4.8 mph7.7 kmh 29.73 in1006.8 mb 0.00 in0.0 mm 0.00 in/hr0.0 mm/hr 0.00 in0.0 mm
12:03 AM 70.2°F21.2°C 53.3°F11.8°C 55% 3.2 mph W5.1 kmh W 4.8 mph7.7 kmh 29.73 in1006.8 mb 0.00 in0.0 mm 0.00 in/hr0.0 mm/hr 0.00 in0.0 mm
12:02 AM 70.2°F21.2°C 53.3°F11.8°C 55% 3.8 mph WNW6.1 kmh WNW 4.8 mph7.7 kmh 29.73 in1006.8 mb 0.00 in0.0 mm 0.00 in/hr0.0 mm/hr 0.00 in0.0 mm
12:01 AM 70.2°F21.2°C 53.3°F11.8°C 55% Calm Calm 5.9 mph9.5 kmh 29.73 in1006.8 mb 0.00 in0.0 mm 0.00 in/hr0.0 mm/hr 0.00 in0.0 mm
12:00 AM 70.2°F21.2°C 53.3°F11.8°C 55% Calm Calm 5.9 mph9.5 kmh 29.73 in1006.8 mb 0.00 in0.0 mm 0.00 in/hr0.0 mm/hr 0.00 in0.0 mm